<?xml version="1.0" encoding="UTF-8" standalone="no" ?><gpx xmlns="http://www.topografix.com/GPX/1/1" xmlns:gpxx="http://www.garmin.com/xmlschemas/GpxExtensions/v3" xmlns:wptx1="http://www.garmin.com/xmlschemas/WaypointExtension/v1" xmlns:gpxtpx="http://www.garmin.com/xmlschemas/TrackPointExtension/v1" creator="GuideVTT.com" version="1.1" xmlns:xsi="http://www.w3.org/2001/XMLSchema-instance" xsi:schemaLocation="http://www.topografix.com/GPX/1/1 http://www.topografix.com/GPX/1/1/gpx.xsd http://www.garmin.com/xmlschemas/GpxExtensions/v3 http://www8.garmin.com/xmlschemas/GpxExtensionsv3.xsd http://www.garmin.com/xmlschemas/WaypointExtension/v1 http://www8.garmin.com/xmlschemas/WaypointExtensionv1.xsd http://www.garmin.com/xmlschemas/TrackPointExtension/v1 http://www.garmin.com/xmlschemas/TrackPointExtensionv1.xsd">
<metadata><link href="http://www.garmin.com"><text>Garmin International</text></link><time>2013-06-22T15:13:50Z</time></metadata>
<trk><name>rp2016_36.gpx</name><extensions><gpxx:TrackExtension><gpxx:DisplayColor>Cyan</gpxx:DisplayColor></gpxx:TrackExtension></extensions><trkseg>
<trkpt lat="46.48867" lon="6.72658"><ele></ele><time>2016-10-30T12:45:57Z</time></trkpt>
<trkpt lat="46.48866" lon="6.7267"><ele></ele><time>2016-10-30T12:46:0Z</time></trkpt>
<trkpt lat="46.48893" lon="6.72686"><ele></ele><time>2016-10-30T12:46:3Z</time></trkpt>
<trkpt lat="46.48898" lon="6.72682"><ele></ele><time>2016-10-30T12:46:6Z</time></trkpt>
<trkpt lat="46.489" lon="6.72683"><ele></ele><time>2016-10-30T12:46:9Z</time></trkpt>
<trkpt lat="46.48915" lon="6.72689"><ele></ele><time>2016-10-30T12:46:12Z</time></trkpt>
<trkpt lat="46.48925" lon="6.72692"><ele></ele><time>2016-10-30T12:46:15Z</time></trkpt>
<trkpt lat="46.48938" lon="6.72706"><ele></ele><time>2016-10-30T12:46:18Z</time></trkpt>
<trkpt lat="46.48939" lon="6.72709"><ele></ele><time>2016-10-30T12:46:21Z</time></trkpt>
<trkpt lat="46.48944" lon="6.72737"><ele></ele><time>2016-10-30T12:46:24Z</time></trkpt>
<trkpt lat="46.48948" lon="6.72763"><ele></ele><time>2016-10-30T12:46:27Z</time></trkpt>
<trkpt lat="46.48949" lon="6.72769"><ele></ele><time>2016-10-30T12:46:30Z</time></trkpt>
<trkpt lat="46.48956" lon="6.7281"><ele></ele><time>2016-10-30T12:46:33Z</time></trkpt>
<trkpt lat="46.48958" lon="6.72837"><ele></ele><time>2016-10-30T12:46:36Z</time></trkpt>
<trkpt lat="46.48963" lon="6.72865"><ele></ele><time>2016-10-30T12:46:39Z</time></trkpt>
<trkpt lat="46.4897" lon="6.72892"><ele></ele><time>2016-10-30T12:46:42Z</time></trkpt>
<trkpt lat="46.48982" lon="6.72915"><ele></ele><time>2016-10-30T12:46:45Z</time></trkpt>
<trkpt lat="46.48996" lon="6.72935"><ele></ele><time>2016-10-30T12:46:48Z</time></trkpt>
<trkpt lat="46.49006" lon="6.72945"><ele></ele><time>2016-10-30T12:46:51Z</time></trkpt>
<trkpt lat="46.49021" lon="6.72958"><ele></ele><time>2016-10-30T12:46:54Z</time></trkpt>
<trkpt lat="46.49035" lon="6.72969"><ele></ele><time>2016-10-30T12:46:57Z</time></trkpt>
<trkpt lat="46.49053" lon="6.72983"><ele></ele><time>2016-10-30T12:47:0Z</time></trkpt>
<trkpt lat="46.49069" lon="6.72995"><ele></ele><time>2016-10-30T12:47:3Z</time></trkpt>
<trkpt lat="46.49086" lon="6.73008"><ele></ele><time>2016-10-30T12:47:6Z</time></trkpt>
<trkpt lat="46.49102" lon="6.73022"><ele></ele><time>2016-10-30T12:47:9Z</time></trkpt>
<trkpt lat="46.49117" lon="6.73039"><ele></ele><time>2016-10-30T12:47:12Z</time></trkpt>
<trkpt lat="46.49128" lon="6.7306"><ele></ele><time>2016-10-30T12:47:15Z</time></trkpt>
<trkpt lat="46.4914" lon="6.731"><ele></ele><time>2016-10-30T12:47:18Z</time></trkpt>
<trkpt lat="46.49143" lon="6.73118"><ele></ele><time>2016-10-30T12:47:21Z</time></trkpt>
<trkpt lat="46.49145" lon="6.73128"><ele></ele><time>2016-10-30T12:47:24Z</time></trkpt>
<trkpt lat="46.49152" lon="6.73156"><ele></ele><time>2016-10-30T12:47:27Z</time></trkpt>
<trkpt lat="46.49161" lon="6.73179"><ele></ele><time>2016-10-30T12:47:30Z</time></trkpt>
<trkpt lat="46.49174" lon="6.73199"><ele></ele><time>2016-10-30T12:47:33Z</time></trkpt>
<trkpt lat="46.49189" lon="6.73217"><ele></ele><time>2016-10-30T12:47:36Z</time></trkpt>
<trkpt lat="46.49205" lon="6.73236"><ele></ele><time>2016-10-30T12:47:39Z</time></trkpt>
<trkpt lat="46.49218" lon="6.73256"><ele></ele><time>2016-10-30T12:47:42Z</time></trkpt>
<trkpt lat="46.49237" lon="6.7329"><ele></ele><time>2016-10-30T12:47:45Z</time></trkpt>
<trkpt lat="46.49248" lon="6.73313"><ele></ele><time>2016-10-30T12:47:48Z</time></trkpt>
<trkpt lat="46.4926" lon="6.73333"><ele></ele><time>2016-10-30T12:47:51Z</time></trkpt>
<trkpt lat="46.49275" lon="6.7335"><ele></ele><time>2016-10-30T12:47:54Z</time></trkpt>
<trkpt lat="46.4928" lon="6.73354"><ele></ele><time>2016-10-30T12:47:57Z</time></trkpt>
<trkpt lat="46.49298" lon="6.73365"><ele></ele><time>2016-10-30T12:48:0Z</time></trkpt>
<trkpt lat="46.49316" lon="6.73373"><ele></ele><time>2016-10-30T12:48:3Z</time></trkpt>
<trkpt lat="46.49335" lon="6.73381"><ele></ele><time>2016-10-30T12:48:6Z</time></trkpt>
<trkpt lat="46.49352" lon="6.73392"><ele></ele><time>2016-10-30T12:48:9Z</time></trkpt>
<trkpt lat="46.49358" lon="6.73406"><ele></ele><time>2016-10-30T12:48:12Z</time></trkpt>
<trkpt lat="46.49361" lon="6.73445"><ele></ele><time>2016-10-30T12:48:15Z</time></trkpt>
<trkpt lat="46.49348" lon="6.73468"><ele></ele><time>2016-10-30T12:48:18Z</time></trkpt>
<trkpt lat="46.49339" lon="6.73493"><ele></ele><time>2016-10-30T12:48:21Z</time></trkpt>
<trkpt lat="46.49338" lon="6.73498"><ele></ele><time>2016-10-30T12:48:24Z</time></trkpt>
<trkpt lat="46.49337" lon="6.735"><ele></ele><time>2016-10-30T12:48:27Z</time></trkpt>
<trkpt lat="46.49337" lon="6.73501"><ele></ele><time>2016-10-30T12:48:30Z</time></trkpt>
<trkpt lat="46.49337" lon="6.73531"><ele></ele><time>2016-10-30T12:48:33Z</time></trkpt>
<trkpt lat="46.49339" lon="6.7356"><ele></ele><time>2016-10-30T12:48:36Z</time></trkpt>
<trkpt lat="46.49338" lon="6.73586"><ele></ele><time>2016-10-30T12:48:39Z</time></trkpt>
<trkpt lat="46.49336" lon="6.73617"><ele></ele><time>2016-10-30T12:48:42Z</time></trkpt>
<trkpt lat="46.49331" lon="6.73648"><ele></ele><time>2016-10-30T12:48:45Z</time></trkpt>
<trkpt lat="46.49329" lon="6.73679"><ele></ele><time>2016-10-30T12:48:48Z</time></trkpt>
<trkpt lat="46.49327" lon="6.7371"><ele></ele><time>2016-10-30T12:48:51Z</time></trkpt>
<trkpt lat="46.49323" lon="6.7374"><ele></ele><time>2016-10-30T12:48:54Z</time></trkpt>
<trkpt lat="46.49314" lon="6.7377"><ele></ele><time>2016-10-30T12:48:57Z</time></trkpt>
<trkpt lat="46.49304" lon="6.73797"><ele></ele><time>2016-10-30T12:49:0Z</time></trkpt>
<trkpt lat="46.49295" lon="6.73824"><ele></ele><time>2016-10-30T12:49:3Z</time></trkpt>
<trkpt lat="46.49287" lon="6.73851"><ele></ele><time>2016-10-30T12:49:6Z</time></trkpt>
<trkpt lat="46.49279" lon="6.73878"><ele></ele><time>2016-10-30T12:49:9Z</time></trkpt>
<trkpt lat="46.49278" lon="6.73885"><ele></ele><time>2016-10-30T12:49:12Z</time></trkpt>
<trkpt lat="46.49277" lon="6.73917"><ele></ele><time>2016-10-30T12:49:15Z</time></trkpt>
<trkpt lat="46.49279" lon="6.73949"><ele></ele><time>2016-10-30T12:49:18Z</time></trkpt>
<trkpt lat="46.49281" lon="6.73975"><ele></ele><time>2016-10-30T12:49:21Z</time></trkpt>
<trkpt lat="46.49284" lon="6.74002"><ele></ele><time>2016-10-30T12:49:24Z</time></trkpt>
<trkpt lat="46.49285" lon="6.7403"><ele></ele><time>2016-10-30T12:49:27Z</time></trkpt>
<trkpt lat="46.49281" lon="6.74057"><ele></ele><time>2016-10-30T12:49:30Z</time></trkpt>
<trkpt lat="46.49275" lon="6.74087"><ele></ele><time>2016-10-30T12:49:33Z</time></trkpt>
<trkpt lat="46.49269" lon="6.74115"><ele></ele><time>2016-10-30T12:49:36Z</time></trkpt>
<trkpt lat="46.49268" lon="6.74121"><ele></ele><time>2016-10-30T12:49:39Z</time></trkpt>
<trkpt lat="46.49264" lon="6.74146"><ele></ele><time>2016-10-30T12:49:42Z</time></trkpt>
<trkpt lat="46.49258" lon="6.74176"><ele></ele><time>2016-10-30T12:49:45Z</time></trkpt>
<trkpt lat="46.49255" lon="6.74202"><ele></ele><time>2016-10-30T12:49:48Z</time></trkpt>
<trkpt lat="46.49255" lon="6.74208"><ele></ele><time>2016-10-30T12:49:51Z</time></trkpt>
<trkpt lat="46.49259" lon="6.7424"><ele></ele><time>2016-10-30T12:49:54Z</time></trkpt>
<trkpt lat="46.49262" lon="6.74258"><ele></ele><time>2016-10-30T12:49:57Z</time></trkpt>
<trkpt lat="46.49262" lon="6.74289"><ele></ele><time>2016-10-30T12:50:0Z</time></trkpt>
<trkpt lat="46.49255" lon="6.74318"><ele></ele><time>2016-10-30T12:50:3Z</time></trkpt>
<trkpt lat="46.4925" lon="6.74328"><ele></ele><time>2016-10-30T12:50:6Z</time></trkpt>
<trkpt lat="46.49239" lon="6.74351"><ele></ele><time>2016-10-30T12:50:9Z</time></trkpt>
<trkpt lat="46.49235" lon="6.7437"><ele></ele><time>2016-10-30T12:50:12Z</time></trkpt>
<trkpt lat="46.49234" lon="6.7438"><ele></ele><time>2016-10-30T12:50:15Z</time></trkpt>
<trkpt lat="46.49232" lon="6.74412"><ele></ele><time>2016-10-30T12:50:18Z</time></trkpt>
<trkpt lat="46.49233" lon="6.74419"><ele></ele><time>2016-10-30T12:50:21Z</time></trkpt>
<trkpt lat="46.49244" lon="6.74448"><ele></ele><time>2016-10-30T12:50:24Z</time></trkpt>
<trkpt lat="46.49251" lon="6.74462"><ele></ele><time>2016-10-30T12:50:27Z</time></trkpt>
<trkpt lat="46.49252" lon="6.7447"><ele></ele><time>2016-10-30T12:50:30Z</time></trkpt>
<trkpt lat="46.49254" lon="6.74477"><ele></ele><time>2016-10-30T12:50:33Z</time></trkpt>
<trkpt lat="46.49255" lon="6.74484"><ele></ele><time>2016-10-30T12:50:36Z</time></trkpt>
<trkpt lat="46.49249" lon="6.74506"><ele></ele><time>2016-10-30T12:50:39Z</time></trkpt>
<trkpt lat="46.4924" lon="6.74521"><ele></ele><time>2016-10-30T12:50:42Z</time></trkpt>
<trkpt lat="46.49237" lon="6.74525"><ele></ele><time>2016-10-30T12:50:45Z</time></trkpt>
<trkpt lat="46.49221" lon="6.74542"><ele></ele><time>2016-10-30T12:50:48Z</time></trkpt>
<trkpt lat="46.49203" lon="6.74564"><ele></ele><time>2016-10-30T12:50:51Z</time></trkpt>
<trkpt lat="46.49195" lon="6.74588"><ele></ele><time>2016-10-30T12:50:54Z</time></trkpt>
<trkpt lat="46.49191" lon="6.74605"><ele></ele><time>2016-10-30T12:50:57Z</time></trkpt>
<trkpt lat="46.49188" lon="6.74632"><ele></ele><time>2016-10-30T12:51:0Z</time></trkpt>
<trkpt lat="46.49184" lon="6.7466"><ele></ele><time>2016-10-30T12:51:3Z</time></trkpt>
<trkpt lat="46.49181" lon="6.74687"><ele></ele><time>2016-10-30T12:51:6Z</time></trkpt>
<trkpt lat="46.4918" lon="6.74695"><ele></ele><time>2016-10-30T12:51:9Z</time></trkpt>
<trkpt lat="46.49175" lon="6.74717"><ele></ele><time>2016-10-30T12:51:12Z</time></trkpt>
<trkpt lat="46.49164" lon="6.7474"><ele></ele><time>2016-10-30T12:51:15Z</time></trkpt>
<trkpt lat="46.49161" lon="6.74745"><ele></ele><time>2016-10-30T12:51:18Z</time></trkpt>
<trkpt lat="46.4916" lon="6.74748"><ele></ele><time>2016-10-30T12:51:21Z</time></trkpt>
<trkpt lat="46.4916" lon="6.74748"><ele></ele><time>2016-10-30T12:51:24Z</time></trkpt>
<trkpt lat="46.4916" lon="6.74751"><ele></ele><time>2016-10-30T12:51:27Z</time></trkpt>
<trkpt lat="46.4916" lon="6.74752"><ele></ele><time>2016-10-30T12:51:30Z</time></trkpt>
<trkpt lat="46.4916" lon="6.74752"><ele></ele><time>2016-10-30T12:51:33Z</time></trkpt>
<trkpt lat="46.4916" lon="6.74752"><ele></ele><time>2016-10-30T12:51:36Z</time></trkpt>
<trkpt lat="46.49153" lon="6.74771"><ele></ele><time>2016-10-30T12:51:39Z</time></trkpt>
<trkpt lat="46.49146" lon="6.74779"><ele></ele><time>2016-10-30T12:51:42Z</time></trkpt>
<trkpt lat="46.49143" lon="6.74784"><ele></ele><time>2016-10-30T12:51:45Z</time></trkpt>
<trkpt lat="46.49135" lon="6.74793"><ele></ele><time>2016-10-30T12:51:48Z</time></trkpt>
<trkpt lat="46.49128" lon="6.74802"><ele></ele><time>2016-10-30T12:51:51Z</time></trkpt>
<trkpt lat="46.49121" lon="6.74817"><ele></ele><time>2016-10-30T12:51:54Z</time></trkpt>
<trkpt lat="46.49104" lon="6.74838"><ele></ele><time>2016-10-30T12:51:57Z</time></trkpt>
<trkpt lat="46.49093" lon="6.74848"><ele></ele><time>2016-10-30T12:52:0Z</time></trkpt>
<trkpt lat="46.49087" lon="6.74853"><ele></ele><time>2016-10-30T12:52:3Z</time></trkpt>
<trkpt lat="46.49077" lon="6.74861"><ele></ele><time>2016-10-30T12:52:6Z</time></trkpt>
<trkpt lat="46.49056" lon="6.7487"><ele></ele><time>2016-10-30T12:52:9Z</time></trkpt>
<trkpt lat="46.49039" lon="6.74885"><ele></ele><time>2016-10-30T12:52:12Z</time></trkpt>
<trkpt lat="46.4903" lon="6.749"><ele></ele><time>2016-10-30T12:52:15Z</time></trkpt>
<trkpt lat="46.49028" lon="6.74905"><ele></ele><time>2016-10-30T12:52:18Z</time></trkpt>
<trkpt lat="46.4902" lon="6.74931"><ele></ele><time>2016-10-30T12:52:21Z</time></trkpt>
<trkpt lat="46.49014" lon="6.74959"><ele></ele><time>2016-10-30T12:52:24Z</time></trkpt>
<trkpt lat="46.4901" lon="6.74977"><ele></ele><time>2016-10-30T12:52:27Z</time></trkpt>
<trkpt lat="46.49001" lon="6.74999"><ele></ele><time>2016-10-30T12:52:30Z</time></trkpt>
<trkpt lat="46.48986" lon="6.75018"><ele></ele><time>2016-10-30T12:52:33Z</time></trkpt>
<trkpt lat="46.4897" lon="6.75037"><ele></ele><time>2016-10-30T12:52:36Z</time></trkpt>
<trkpt lat="46.48953" lon="6.75057"><ele></ele><time>2016-10-30T12:52:39Z</time></trkpt>
<trkpt lat="46.4895" lon="6.75061"><ele></ele><time>2016-10-30T12:52:42Z</time></trkpt>
<trkpt lat="46.48939" lon="6.75089"><ele></ele><time>2016-10-30T12:52:45Z</time></trkpt>
<trkpt lat="46.48938" lon="6.75114"><ele></ele><time>2016-10-30T12:52:48Z</time></trkpt>
<trkpt lat="46.48937" lon="6.7514"><ele></ele><time>2016-10-30T12:52:51Z</time></trkpt>
<trkpt lat="46.48933" lon="6.75166"><ele></ele><time>2016-10-30T12:52:54Z</time></trkpt>
<trkpt lat="46.48931" lon="6.75172"><ele></ele><time>2016-10-30T12:52:57Z</time></trkpt>
<trkpt lat="46.48918" lon="6.75196"><ele></ele><time>2016-10-30T12:53:0Z</time></trkpt>
<trkpt lat="46.48915" lon="6.75199"><ele></ele><time>2016-10-30T12:53:3Z</time></trkpt>
<trkpt lat="46.48899" lon="6.75213"><ele></ele><time>2016-10-30T12:53:6Z</time></trkpt>
<trkpt lat="46.48881" lon="6.75227"><ele></ele><time>2016-10-30T12:53:9Z</time></trkpt>
<trkpt lat="46.48865" lon="6.75243"><ele></ele><time>2016-10-30T12:53:12Z</time></trkpt>
<trkpt lat="46.48851" lon="6.75265"><ele></ele><time>2016-10-30T12:53:15Z</time></trkpt>
<trkpt lat="46.48838" lon="6.75288"><ele></ele><time>2016-10-30T12:53:18Z</time></trkpt>
<trkpt lat="46.48825" lon="6.75312"><ele></ele><time>2016-10-30T12:53:21Z</time></trkpt>
<trkpt lat="46.48813" lon="6.75337"><ele></ele><time>2016-10-30T12:53:24Z</time></trkpt>
<trkpt lat="46.48798" lon="6.75359"><ele></ele><time>2016-10-30T12:53:27Z</time></trkpt>
<trkpt lat="46.48787" lon="6.75386"><ele></ele><time>2016-10-30T12:53:30Z</time></trkpt>
<trkpt lat="46.48775" lon="6.75411"><ele></ele><time>2016-10-30T12:53:33Z</time></trkpt>
<trkpt lat="46.48761" lon="6.75433"><ele></ele><time>2016-10-30T12:53:36Z</time></trkpt>
<trkpt lat="46.48745" lon="6.75454"><ele></ele><time>2016-10-30T12:53:39Z</time></trkpt>
<trkpt lat="46.48728" lon="6.75474"><ele></ele><time>2016-10-30T12:53:42Z</time></trkpt>
<trkpt lat="46.48712" lon="6.75492"><ele></ele><time>2016-10-30T12:53:45Z</time></trkpt>
<trkpt lat="46.48696" lon="6.75511"><ele></ele><time>2016-10-30T12:53:48Z</time></trkpt>
<trkpt lat="46.4868" lon="6.75531"><ele></ele><time>2016-10-30T12:53:51Z</time></trkpt>
<trkpt lat="46.48665" lon="6.75552"><ele></ele><time>2016-10-30T12:53:54Z</time></trkpt>
<trkpt lat="46.48651" lon="6.75574"><ele></ele><time>2016-10-30T12:53:57Z</time></trkpt>
<trkpt lat="46.48638" lon="6.75596"><ele></ele><time>2016-10-30T12:54:0Z</time></trkpt>
<trkpt lat="46.48626" lon="6.75618"><ele></ele><time>2016-10-30T12:54:3Z</time></trkpt>
<trkpt lat="46.48616" lon="6.75635"><ele></ele><time>2016-10-30T12:54:6Z</time></trkpt>
<trkpt lat="46.486" lon="6.75664"><ele></ele><time>2016-10-30T12:54:9Z</time></trkpt>
<trkpt lat="46.48597" lon="6.7567"><ele></ele><time>2016-10-30T12:54:12Z</time></trkpt>
<trkpt lat="46.48585" lon="6.75693"><ele></ele><time>2016-10-30T12:54:15Z</time></trkpt>
<trkpt lat="46.48573" lon="6.75718"><ele></ele><time>2016-10-30T12:54:18Z</time></trkpt>
<trkpt lat="46.48559" lon="6.75741"><ele></ele><time>2016-10-30T12:54:21Z</time></trkpt>
<trkpt lat="46.48553" lon="6.75753"><ele></ele><time>2016-10-30T12:54:24Z</time></trkpt>
<trkpt lat="46.4854" lon="6.75773"><ele></ele><time>2016-10-30T12:54:27Z</time></trkpt>
<trkpt lat="46.48528" lon="6.75794"><ele></ele><time>2016-10-30T12:54:30Z</time></trkpt>
<trkpt lat="46.48515" lon="6.75814"><ele></ele><time>2016-10-30T12:54:33Z</time></trkpt>
<trkpt lat="46.48506" lon="6.75831"><ele></ele><time>2016-10-30T12:54:36Z</time></trkpt>
<trkpt lat="46.48493" lon="6.75853"><ele></ele><time>2016-10-30T12:54:39Z</time></trkpt>
<trkpt lat="46.4848" lon="6.75874"><ele></ele><time>2016-10-30T12:54:42Z</time></trkpt>
<trkpt lat="46.48466" lon="6.75893"><ele></ele><time>2016-10-30T12:54:45Z</time></trkpt>
<trkpt lat="46.48449" lon="6.75912"><ele></ele><time>2016-10-30T12:54:48Z</time></trkpt>
<trkpt lat="46.48436" lon="6.75926"><ele></ele><time>2016-10-30T12:54:51Z</time></trkpt>
<trkpt lat="46.48419" lon="6.75942"><ele></ele><time>2016-10-30T12:54:54Z</time></trkpt>
<trkpt lat="46.48403" lon="6.75961"><ele></ele><time>2016-10-30T12:54:57Z</time></trkpt>
<trkpt lat="46.48393" lon="6.75976"><ele></ele><time>2016-10-30T12:55:0Z</time></trkpt>
<trkpt lat="46.4838" lon="6.75998"><ele></ele><time>2016-10-30T12:55:3Z</time></trkpt>
<trkpt lat="46.48366" lon="6.76019"><ele></ele><time>2016-10-30T12:55:6Z</time></trkpt>
<trkpt lat="46.48351" lon="6.76039"><ele></ele><time>2016-10-30T12:55:9Z</time></trkpt>
<trkpt lat="46.48333" lon="6.76059"><ele></ele><time>2016-10-30T12:55:12Z</time></trkpt>
<trkpt lat="46.4832" lon="6.76078"><ele></ele><time>2016-10-30T12:55:15Z</time></trkpt>
<trkpt lat="46.48309" lon="6.76101"><ele></ele><time>2016-10-30T12:55:18Z</time></trkpt>
<trkpt lat="46.48297" lon="6.76121"><ele></ele><time>2016-10-30T12:55:21Z</time></trkpt>
<trkpt lat="46.48283" lon="6.76146"><ele></ele><time>2016-10-30T12:55:24Z</time></trkpt>
<trkpt lat="46.48268" lon="6.76171"><ele></ele><time>2016-10-30T12:55:27Z</time></trkpt>
<trkpt lat="46.48253" lon="6.76192"><ele></ele><time>2016-10-30T12:55:30Z</time></trkpt>
<trkpt lat="46.48239" lon="6.76214"><ele></ele><time>2016-10-30T12:55:33Z</time></trkpt>
<trkpt lat="46.48231" lon="6.76228"><ele></ele><time>2016-10-30T12:55:36Z</time></trkpt>
<trkpt lat="46.48219" lon="6.76253"><ele></ele><time>2016-10-30T12:55:39Z</time></trkpt>
<trkpt lat="46.48207" lon="6.76277"><ele></ele><time>2016-10-30T12:55:42Z</time></trkpt>
<trkpt lat="46.48198" lon="6.76299"><ele></ele><time>2016-10-30T12:55:45Z</time></trkpt>
<trkpt lat="46.48187" lon="6.76321"><ele></ele><time>2016-10-30T12:55:48Z</time></trkpt>
<trkpt lat="46.48177" lon="6.76344"><ele></ele><time>2016-10-30T12:55:51Z</time></trkpt>
<trkpt lat="46.48166" lon="6.76368"><ele></ele><time>2016-10-30T12:55:54Z</time></trkpt>
<trkpt lat="46.48153" lon="6.7639"><ele></ele><time>2016-10-30T12:55:57Z</time></trkpt>
<trkpt lat="46.4814" lon="6.76411"><ele></ele><time>2016-10-30T12:56:0Z</time></trkpt>
<trkpt lat="46.48133" lon="6.76437"><ele></ele><time>2016-10-30T12:56:3Z</time></trkpt>
<trkpt lat="46.48126" lon="6.76464"><ele></ele><time>2016-10-30T12:56:6Z</time></trkpt>
<trkpt lat="46.48117" lon="6.76489"><ele></ele><time>2016-10-30T12:56:9Z</time></trkpt>
<trkpt lat="46.481" lon="6.7654"><ele></ele><time>2016-10-30T12:56:12Z</time></trkpt>
<trkpt lat="46.48089" lon="6.76565"><ele></ele><time>2016-10-30T12:56:15Z</time></trkpt>
<trkpt lat="46.48076" lon="6.76586"><ele></ele><time>2016-10-30T12:56:18Z</time></trkpt>
<trkpt lat="46.48062" lon="6.76608"><ele></ele><time>2016-10-30T12:56:21Z</time></trkpt>
<trkpt lat="46.48056" lon="6.76636"><ele></ele><time>2016-10-30T12:56:24Z</time></trkpt>
<trkpt lat="46.48049" lon="6.76664"><ele></ele><time>2016-10-30T12:56:27Z</time></trkpt>
<trkpt lat="46.48041" lon="6.7669"><ele></ele><time>2016-10-30T12:56:30Z</time></trkpt>
<trkpt lat="46.48035" lon="6.76715"><ele></ele><time>2016-10-30T12:56:33Z</time></trkpt>
<trkpt lat="46.48029" lon="6.76757"><ele></ele><time>2016-10-30T12:56:36Z</time></trkpt>
<trkpt lat="46.48032" lon="6.76783"><ele></ele><time>2016-10-30T12:56:39Z</time></trkpt>
<trkpt lat="46.48042" lon="6.76806"><ele></ele><time>2016-10-30T12:56:42Z</time></trkpt>
<trkpt lat="46.4805" lon="6.7683"><ele></ele><time>2016-10-30T12:56:45Z</time></trkpt>
<trkpt lat="46.48053" lon="6.76856"><ele></ele><time>2016-10-30T12:56:48Z</time></trkpt>
<trkpt lat="46.48052" lon="6.76872"><ele></ele><time>2016-10-30T12:56:51Z</time></trkpt>
<trkpt lat="46.4805" lon="6.76887"><ele></ele><time>2016-10-30T12:56:54Z</time></trkpt>
<trkpt lat="46.48045" lon="6.76918"><ele></ele><time>2016-10-30T12:56:57Z</time></trkpt>
<trkpt lat="46.48045" lon="6.76944"><ele></ele><time>2016-10-30T12:57:0Z</time></trkpt>
<trkpt lat="46.48046" lon="6.76971"><ele></ele><time>2016-10-30T12:57:3Z</time></trkpt>
<trkpt lat="46.48048" lon="6.77"><ele></ele><time>2016-10-30T12:57:6Z</time></trkpt>
<trkpt lat="46.48046" lon="6.77027"><ele></ele><time>2016-10-30T12:57:9Z</time></trkpt>
<trkpt lat="46.48039" lon="6.77053"><ele></ele><time>2016-10-30T12:57:12Z</time></trkpt>
<trkpt lat="46.48033" lon="6.77078"><ele></ele><time>2016-10-30T12:57:15Z</time></trkpt>
<trkpt lat="46.4803" lon="6.77105"><ele></ele><time>2016-10-30T12:57:18Z</time></trkpt>
<trkpt lat="46.48028" lon="6.77134"><ele></ele><time>2016-10-30T12:57:21Z</time></trkpt>
<trkpt lat="46.48026" lon="6.77163"><ele></ele><time>2016-10-30T12:57:24Z</time></trkpt>
<trkpt lat="46.48024" lon="6.77192"><ele></ele><time>2016-10-30T12:57:27Z</time></trkpt>
<trkpt lat="46.4802" lon="6.77218"><ele></ele><time>2016-10-30T12:57:30Z</time></trkpt>
<trkpt lat="46.48017" lon="6.77244"><ele></ele><time>2016-10-30T12:57:33Z</time></trkpt>
<trkpt lat="46.48013" lon="6.77272"><ele></ele><time>2016-10-30T12:57:36Z</time></trkpt>
<trkpt lat="46.48008" lon="6.77301"><ele></ele><time>2016-10-30T12:57:39Z</time></trkpt>
<trkpt lat="46.48011" lon="6.77346"><ele></ele><time>2016-10-30T12:57:42Z</time></trkpt>
<trkpt lat="46.48018" lon="6.77371"><ele></ele><time>2016-10-30T12:57:45Z</time></trkpt>
<trkpt lat="46.48031" lon="6.7739"><ele></ele><time>2016-10-30T12:57:48Z</time></trkpt>
<trkpt lat="46.48052" lon="6.77394"><ele></ele><time>2016-10-30T12:57:51Z</time></trkpt>
<trkpt lat="46.48069" lon="6.77383"><ele></ele><time>2016-10-30T12:57:54Z</time></trkpt>
<trkpt lat="46.48088" lon="6.77372"><ele></ele><time>2016-10-30T12:57:57Z</time></trkpt>
<trkpt lat="46.48109" lon="6.77374"><ele></ele><time>2016-10-30T12:58:0Z</time></trkpt>
<trkpt lat="46.48126" lon="6.77393"><ele></ele><time>2016-10-30T12:58:3Z</time></trkpt>
<trkpt lat="46.48139" lon="6.77417"><ele></ele><time>2016-10-30T12:58:6Z</time></trkpt>
<trkpt lat="46.48151" lon="6.77441"><ele></ele><time>2016-10-30T12:58:9Z</time></trkpt>
<trkpt lat="46.48165" lon="6.77462"><ele></ele><time>2016-10-30T12:58:12Z</time></trkpt>
<trkpt lat="46.48182" lon="6.77481"><ele></ele><time>2016-10-30T12:58:15Z</time></trkpt>
<trkpt lat="46.48195" lon="6.77503"><ele></ele><time>2016-10-30T12:58:18Z</time></trkpt>
<trkpt lat="46.48187" lon="6.77532"><ele></ele><time>2016-10-30T12:58:21Z</time></trkpt>
<trkpt lat="46.48173" lon="6.77554"><ele></ele><time>2016-10-30T12:58:24Z</time></trkpt>
<trkpt lat="46.48167" lon="6.77559"><ele></ele><time>2016-10-30T12:58:27Z</time></trkpt>
<trkpt lat="46.48162" lon="6.77563"><ele></ele><time>2016-10-30T12:58:30Z</time></trkpt>
<trkpt lat="46.48154" lon="6.7757"><ele></ele><time>2016-10-30T12:58:33Z</time></trkpt>
<trkpt lat="46.4815" lon="6.77575"><ele></ele><time>2016-10-30T12:58:36Z</time></trkpt>
<trkpt lat="46.48137" lon="6.77593"><ele></ele><time>2016-10-30T12:58:39Z</time></trkpt>
<trkpt lat="46.48127" lon="6.77611"><ele></ele><time>2016-10-30T12:58:42Z</time></trkpt>
<trkpt lat="46.48118" lon="6.77634"><ele></ele><time>2016-10-30T12:58:45Z</time></trkpt>
<trkpt lat="46.48114" lon="6.77651"><ele></ele><time>2016-10-30T12:58:48Z</time></trkpt>
<trkpt lat="46.48119" lon="6.77683"><ele></ele><time>2016-10-30T12:58:51Z</time></trkpt>
<trkpt lat="46.48132" lon="6.77704"><ele></ele><time>2016-10-30T12:58:54Z</time></trkpt>
<trkpt lat="46.48142" lon="6.77718"><ele></ele><time>2016-10-30T12:58:57Z</time></trkpt>
<trkpt lat="46.48149" lon="6.77724"><ele></ele><time>2016-10-30T12:59:0Z</time></trkpt>
<trkpt lat="46.48154" lon="6.77748"><ele></ele><time>2016-10-30T12:59:3Z</time></trkpt>
<trkpt lat="46.48155" lon="6.77763"><ele></ele><time>2016-10-30T12:59:6Z</time></trkpt>
<trkpt lat="46.4816" lon="6.77789"><ele></ele><time>2016-10-30T12:59:9Z</time></trkpt>
<trkpt lat="46.48168" lon="6.7782"><ele></ele><time>2016-10-30T12:59:12Z</time></trkpt>
<trkpt lat="46.4817" lon="6.77832"><ele></ele><time>2016-10-30T12:59:15Z</time></trkpt>
<trkpt lat="46.48175" lon="6.77859"><ele></ele><time>2016-10-30T12:59:18Z</time></trkpt>
<trkpt lat="46.48178" lon="6.77888"><ele></ele><time>2016-10-30T12:59:21Z</time></trkpt>
<trkpt lat="46.48181" lon="6.77917"><ele></ele><time>2016-10-30T12:59:24Z</time></trkpt>
<trkpt lat="46.48182" lon="6.77931"><ele></ele><time>2016-10-30T12:59:27Z</time></trkpt>
<trkpt lat="46.48175" lon="6.77959"><ele></ele><time>2016-10-30T12:59:30Z</time></trkpt>
<trkpt lat="46.48171" lon="6.77973"><ele></ele><time>2016-10-30T12:59:33Z</time></trkpt>
<trkpt lat="46.48163" lon="6.77984"><ele></ele><time>2016-10-30T12:59:36Z</time></trkpt>
<trkpt lat="46.48145" lon="6.78003"><ele></ele><time>2016-10-30T12:59:39Z</time></trkpt>
<trkpt lat="46.48128" lon="6.78025"><ele></ele><time>2016-10-30T12:59:42Z</time></trkpt>
<trkpt lat="46.48112" lon="6.78046"><ele></ele><time>2016-10-30T12:59:45Z</time></trkpt>
<trkpt lat="46.48094" lon="6.78065"><ele></ele><time>2016-10-30T12:59:48Z</time></trkpt>
<trkpt lat="46.48077" lon="6.78081"><ele></ele><time>2016-10-30T12:59:51Z</time></trkpt>
<trkpt lat="46.48061" lon="6.78097"><ele></ele><time>2016-10-30T12:59:54Z</time></trkpt>
<trkpt lat="46.48054" lon="6.78132"><ele></ele><time>2016-10-30T12:59:57Z</time></trkpt>
<trkpt lat="46.48052" lon="6.78158"><ele></ele><time>2016-10-30T13:0:0Z</time></trkpt>
<trkpt lat="46.4804" lon="6.78181"><ele></ele><time>2016-10-30T13:0:3Z</time></trkpt>
<trkpt lat="46.48033" lon="6.78191"><ele></ele><time>2016-10-30T13:0:6Z</time></trkpt>
<trkpt lat="46.4802" lon="6.78212"><ele></ele><time>2016-10-30T13:0:9Z</time></trkpt>
<trkpt lat="46.48012" lon="6.78238"><ele></ele><time>2016-10-30T13:0:12Z</time></trkpt>
<trkpt lat="46.48003" lon="6.78265"><ele></ele><time>2016-10-30T13:0:15Z</time></trkpt>
<trkpt lat="46.47989" lon="6.78288"><ele></ele><time>2016-10-30T13:0:18Z</time></trkpt>
<trkpt lat="46.47983" lon="6.78299"><ele></ele><time>2016-10-30T13:0:21Z</time></trkpt>
<trkpt lat="46.47974" lon="6.78322"><ele></ele><time>2016-10-30T13:0:24Z</time></trkpt>
<trkpt lat="46.47968" lon="6.78347"><ele></ele><time>2016-10-30T13:0:27Z</time></trkpt>
<trkpt lat="46.47965" lon="6.78374"><ele></ele><time>2016-10-30T13:0:30Z</time></trkpt>
<trkpt lat="46.47964" lon="6.78388"><ele></ele><time>2016-10-30T13:0:33Z</time></trkpt>
<trkpt lat="46.47962" lon="6.78418"><ele></ele><time>2016-10-30T13:0:36Z</time></trkpt>
<trkpt lat="46.47957" lon="6.78449"><ele></ele><time>2016-10-30T13:0:39Z</time></trkpt>
<trkpt lat="46.47952" lon="6.7848"><ele></ele><time>2016-10-30T13:0:42Z</time></trkpt>
<trkpt lat="46.47945" lon="6.78514"><ele></ele><time>2016-10-30T13:0:45Z</time></trkpt>
<trkpt lat="46.47937" lon="6.78547"><ele></ele><time>2016-10-30T13:0:48Z</time></trkpt>
<trkpt lat="46.47928" lon="6.7858"><ele></ele><time>2016-10-30T13:0:51Z</time></trkpt>
<trkpt lat="46.47919" lon="6.78612"><ele></ele><time>2016-10-30T13:0:54Z</time></trkpt>
<trkpt lat="46.47909" lon="6.78643"><ele></ele><time>2016-10-30T13:0:57Z</time></trkpt>
<trkpt lat="46.47897" lon="6.78672"><ele></ele><time>2016-10-30T13:1:0Z</time></trkpt>
<trkpt lat="46.47885" lon="6.78701"><ele></ele><time>2016-10-30T13:1:3Z</time></trkpt>
<trkpt lat="46.47872" lon="6.78728"><ele></ele><time>2016-10-30T13:1:6Z</time></trkpt>
<trkpt lat="46.47861" lon="6.78754"><ele></ele><time>2016-10-30T13:1:9Z</time></trkpt>
<trkpt lat="46.47851" lon="6.78779"><ele></ele><time>2016-10-30T13:1:12Z</time></trkpt>
<trkpt lat="46.4784" lon="6.78802"><ele></ele><time>2016-10-30T13:1:15Z</time></trkpt>
<trkpt lat="46.47827" lon="6.78834"><ele></ele><time>2016-10-30T13:1:18Z</time></trkpt>
<trkpt lat="46.47816" lon="6.78865"><ele></ele><time>2016-10-30T13:1:21Z</time></trkpt>
<trkpt lat="46.47807" lon="6.78898"><ele></ele><time>2016-10-30T13:1:24Z</time></trkpt>
<trkpt lat="46.47805" lon="6.7891"><ele></ele><time>2016-10-30T13:1:27Z</time></trkpt>
<trkpt lat="46.47801" lon="6.78941"><ele></ele><time>2016-10-30T13:1:30Z</time></trkpt>
<trkpt lat="46.47798" lon="6.78967"><ele></ele><time>2016-10-30T13:1:33Z</time></trkpt>
<trkpt lat="46.47794" lon="6.78993"><ele></ele><time>2016-10-30T13:1:36Z</time></trkpt>
<trkpt lat="46.47791" lon="6.79009"><ele></ele><time>2016-10-30T13:1:39Z</time></trkpt>
<trkpt lat="46.47797" lon="6.79037"><ele></ele><time>2016-10-30T13:1:42Z</time></trkpt>
<trkpt lat="46.47798" lon="6.79047"><ele></ele><time>2016-10-30T13:1:45Z</time></trkpt>
<trkpt lat="46.47797" lon="6.7905"><ele></ele><time>2016-10-30T13:1:48Z</time></trkpt>
<trkpt lat="46.47792" lon="6.79077"><ele></ele><time>2016-10-30T13:1:51Z</time></trkpt>
<trkpt lat="46.47789" lon="6.79088"><ele></ele><time>2016-10-30T13:1:54Z</time></trkpt>
<trkpt lat="46.47788" lon="6.79093"><ele></ele><time>2016-10-30T13:1:57Z</time></trkpt>
<trkpt lat="46.47787" lon="6.79097"><ele></ele><time>2016-10-30T13:2:0Z</time></trkpt>
<trkpt lat="46.47783" lon="6.79113"><ele></ele><time>2016-10-30T13:2:3Z</time></trkpt>
<trkpt lat="46.4778" lon="6.79134"><ele></ele><time>2016-10-30T13:2:6Z</time></trkpt>
<trkpt lat="46.47776" lon="6.79156"><ele></ele><time>2016-10-30T13:2:9Z</time></trkpt>
<trkpt lat="46.47774" lon="6.79162"><ele></ele><time>2016-10-30T13:2:12Z</time></trkpt>
<trkpt lat="46.47772" lon="6.79167"><ele></ele><time>2016-10-30T13:2:15Z</time></trkpt>
<trkpt lat="46.4777" lon="6.79172"><ele></ele><time>2016-10-30T13:2:18Z</time></trkpt>
<trkpt lat="46.47767" lon="6.79176"><ele></ele><time>2016-10-30T13:2:21Z</time></trkpt>
<trkpt lat="46.47754" lon="6.79196"><ele></ele><time>2016-10-30T13:2:24Z</time></trkpt>
<trkpt lat="46.47735" lon="6.79238"><ele></ele><time>2016-10-30T13:2:27Z</time></trkpt>
<trkpt lat="46.47731" lon="6.79252"><ele></ele><time>2016-10-30T13:2:30Z</time></trkpt>
<trkpt lat="46.47729" lon="6.7928"><ele></ele><time>2016-10-30T13:2:33Z</time></trkpt>
<trkpt lat="46.47725" lon="6.79308"><ele></ele><time>2016-10-30T13:2:36Z</time></trkpt>
<trkpt lat="46.47722" lon="6.79324"><ele></ele><time>2016-10-30T13:2:39Z</time></trkpt>
<trkpt lat="46.4772" lon="6.79333"><ele></ele><time>2016-10-30T13:2:42Z</time></trkpt>
<trkpt lat="46.47719" lon="6.79337"><ele></ele><time>2016-10-30T13:2:45Z</time></trkpt>
<trkpt lat="46.47718" lon="6.79342"><ele></ele><time>2016-10-30T13:2:48Z</time></trkpt>
<trkpt lat="46.47717" lon="6.79346"><ele></ele><time>2016-10-30T13:2:51Z</time></trkpt>
<trkpt lat="46.47714" lon="6.79359"><ele></ele><time>2016-10-30T13:2:54Z</time></trkpt>
<trkpt lat="46.47712" lon="6.79364"><ele></ele><time>2016-10-30T13:2:57Z</time></trkpt>
<trkpt lat="46.4771" lon="6.7937"><ele></ele><time>2016-10-30T13:3:0Z</time></trkpt>
<trkpt lat="46.47707" lon="6.79377"><ele></ele><time>2016-10-30T13:3:3Z</time></trkpt>
<trkpt lat="46.477" lon="6.79392"><ele></ele><time>2016-10-30T13:3:6Z</time></trkpt>
<trkpt lat="46.47689" lon="6.79414"><ele></ele><time>2016-10-30T13:3:9Z</time></trkpt>
<trkpt lat="46.47678" lon="6.79437"><ele></ele><time>2016-10-30T13:3:12Z</time></trkpt>
<trkpt lat="46.4768" lon="6.79471"><ele></ele><time>2016-10-30T13:3:15Z</time></trkpt>
<trkpt lat="46.47681" lon="6.7948"><ele></ele><time>2016-10-30T13:3:18Z</time></trkpt>
<trkpt lat="46.4768" lon="6.79496"><ele></ele><time>2016-10-30T13:3:21Z</time></trkpt>
<trkpt lat="46.4767" lon="6.79514"><ele></ele><time>2016-10-30T13:3:24Z</time></trkpt>
<trkpt lat="46.4766" lon="6.79538"><ele></ele><time>2016-10-30T13:3:27Z</time></trkpt>
<trkpt lat="46.47657" lon="6.79549"><ele></ele><time>2016-10-30T13:3:30Z</time></trkpt>
<trkpt lat="46.4765" lon="6.79576"><ele></ele><time>2016-10-30T13:3:33Z</time></trkpt>
<trkpt lat="46.47648" lon="6.79593"><ele></ele><time>2016-10-30T13:3:36Z</time></trkpt>
<trkpt lat="46.47644" lon="6.79607"><ele></ele><time>2016-10-30T13:3:39Z</time></trkpt>
<trkpt lat="46.47635" lon="6.79637"><ele></ele><time>2016-10-30T13:3:42Z</time></trkpt>
<trkpt lat="46.47625" lon="6.7966"><ele></ele><time>2016-10-30T13:3:45Z</time></trkpt>
<trkpt lat="46.4762" lon="6.79673"><ele></ele><time>2016-10-30T13:3:48Z</time></trkpt>
<trkpt lat="46.47618" lon="6.79681"><ele></ele><time>2016-10-30T13:3:51Z</time></trkpt>
<trkpt lat="46.47617" lon="6.79709"><ele></ele><time>2016-10-30T13:3:54Z</time></trkpt>
<trkpt lat="46.47615" lon="6.79731"><ele></ele><time>2016-10-30T13:3:57Z</time></trkpt>
<trkpt lat="46.47602" lon="6.79762"><ele></ele><time>2016-10-30T13:4:0Z</time></trkpt>
<trkpt lat="46.47596" lon="6.7977"><ele></ele><time>2016-10-30T13:4:3Z</time></trkpt>
<trkpt lat="46.47591" lon="6.79777"><ele></ele><time>2016-10-30T13:4:6Z</time></trkpt>
<trkpt lat="46.47585" lon="6.79794"><ele></ele><time>2016-10-30T13:4:9Z</time></trkpt>
<trkpt lat="46.4758" lon="6.7981"><ele></ele><time>2016-10-30T13:4:12Z</time></trkpt>
<trkpt lat="46.47575" lon="6.7984"><ele></ele><time>2016-10-30T13:4:15Z</time></trkpt>
<trkpt lat="46.47575" lon="6.79866"><ele></ele><time>2016-10-30T13:4:18Z</time></trkpt>
<trkpt lat="46.47582" lon="6.7989"><ele></ele><time>2016-10-30T13:4:21Z</time></trkpt>
<trkpt lat="46.47593" lon="6.79903"><ele></ele><time>2016-10-30T13:4:24Z</time></trkpt>
<trkpt lat="46.47606" lon="6.79923"><ele></ele><time>2016-10-30T13:4:27Z</time></trkpt>
<trkpt lat="46.47606" lon="6.79939"><ele></ele><time>2016-10-30T13:4:30Z</time></trkpt>
<trkpt lat="46.47603" lon="6.79946"><ele></ele><time>2016-10-30T13:4:33Z</time></trkpt>
<trkpt lat="46.476" lon="6.79951"><ele></ele><time>2016-10-30T13:4:36Z</time></trkpt>
<trkpt lat="46.47589" lon="6.79969"><ele></ele><time>2016-10-30T13:4:39Z</time></trkpt>
<trkpt lat="46.47585" lon="6.79991"><ele></ele><time>2016-10-30T13:4:42Z</time></trkpt>
<trkpt lat="46.47584" lon="6.8"><ele></ele><time>2016-10-30T13:4:45Z</time></trkpt>
<trkpt lat="46.47584" lon="6.80009"><ele></ele><time>2016-10-30T13:4:48Z</time></trkpt>
<trkpt lat="46.47582" lon="6.80018"><ele></ele><time>2016-10-30T13:4:51Z</time></trkpt>
<trkpt lat="46.4758" lon="6.80032"><ele></ele><time>2016-10-30T13:4:54Z</time></trkpt>
<trkpt lat="46.47576" lon="6.80059"><ele></ele><time>2016-10-30T13:4:57Z</time></trkpt>
<trkpt lat="46.47571" lon="6.80087"><ele></ele><time>2016-10-30T13:5:0Z</time></trkpt>
<trkpt lat="46.47563" lon="6.80112"><ele></ele><time>2016-10-30T13:5:3Z</time></trkpt>
<trkpt lat="46.47553" lon="6.80138"><ele></ele><time>2016-10-30T13:5:6Z</time></trkpt>
<trkpt lat="46.47545" lon="6.80162"><ele></ele><time>2016-10-30T13:5:9Z</time></trkpt>
<trkpt lat="46.47538" lon="6.80188"><ele></ele><time>2016-10-30T13:5:12Z</time></trkpt>
<trkpt lat="46.4753" lon="6.80218"><ele></ele><time>2016-10-30T13:5:15Z</time></trkpt>
<trkpt lat="46.47522" lon="6.8025"><ele></ele><time>2016-10-30T13:5:18Z</time></trkpt>
<trkpt lat="46.47516" lon="6.80283"><ele></ele><time>2016-10-30T13:5:21Z</time></trkpt>
<trkpt lat="46.47514" lon="6.80317"><ele></ele><time>2016-10-30T13:5:24Z</time></trkpt>
<trkpt lat="46.47513" lon="6.80334"><ele></ele><time>2016-10-30T13:5:27Z</time></trkpt>
<trkpt lat="46.47512" lon="6.80367"><ele></ele><time>2016-10-30T13:5:30Z</time></trkpt>
<trkpt lat="46.47507" lon="6.80399"><ele></ele><time>2016-10-30T13:5:33Z</time></trkpt>
<trkpt lat="46.47501" lon="6.80427"><ele></ele><time>2016-10-30T13:5:36Z</time></trkpt>
<trkpt lat="46.47495" lon="6.80453"><ele></ele><time>2016-10-30T13:5:39Z</time></trkpt>
<trkpt lat="46.47487" lon="6.80488"><ele></ele><time>2016-10-30T13:5:42Z</time></trkpt>
<trkpt lat="46.47484" lon="6.80498"><ele></ele><time>2016-10-30T13:5:45Z</time></trkpt>
<trkpt lat="46.47481" lon="6.80508"><ele></ele><time>2016-10-30T13:5:48Z</time></trkpt>
<trkpt lat="46.47479" lon="6.80519"><ele></ele><time>2016-10-30T13:5:51Z</time></trkpt>
<trkpt lat="46.47477" lon="6.80529"><ele></ele><time>2016-10-30T13:5:54Z</time></trkpt>
<trkpt lat="46.47469" lon="6.80565"><ele></ele><time>2016-10-30T13:5:57Z</time></trkpt>
<trkpt lat="46.47464" lon="6.80578"><ele></ele><time>2016-10-30T13:6:0Z</time></trkpt>
<trkpt lat="46.47453" lon="6.80604"><ele></ele><time>2016-10-30T13:6:3Z</time></trkpt>
<trkpt lat="46.4744" lon="6.80628"><ele></ele><time>2016-10-30T13:6:6Z</time></trkpt>
<trkpt lat="46.47428" lon="6.80651"><ele></ele><time>2016-10-30T13:6:9Z</time></trkpt>
<trkpt lat="46.47418" lon="6.80671"><ele></ele><time>2016-10-30T13:6:12Z</time></trkpt>
<trkpt lat="46.47402" lon="6.80692"><ele></ele><time>2016-10-30T13:6:15Z</time></trkpt>
<trkpt lat="46.47393" lon="6.80716"><ele></ele><time>2016-10-30T13:6:18Z</time></trkpt>
<trkpt lat="46.47392" lon="6.80722"><ele></ele><time>2016-10-30T13:6:21Z</time></trkpt>
<trkpt lat="46.47386" lon="6.80729"><ele></ele><time>2016-10-30T13:6:24Z</time></trkpt>
<trkpt lat="46.4738" lon="6.80696"><ele></ele><time>2016-10-30T13:6:27Z</time></trkpt>
<trkpt lat="46.47386" lon="6.80667"><ele></ele><time>2016-10-30T13:6:30Z</time></trkpt>
<trkpt lat="46.47391" lon="6.80644"><ele></ele><time>2016-10-30T13:6:33Z</time></trkpt>
<trkpt lat="46.47393" lon="6.8061"><ele></ele><time>2016-10-30T13:6:36Z</time></trkpt>
<trkpt lat="46.47392" lon="6.80591"><ele></ele><time>2016-10-30T13:6:39Z</time></trkpt>
<trkpt lat="46.4738" lon="6.80571"><ele></ele><time>2016-10-30T13:6:42Z</time></trkpt>
<trkpt lat="46.47363" lon="6.80563"><ele></ele><time>2016-10-30T13:6:45Z</time></trkpt>
<trkpt lat="46.47355" lon="6.80554"><ele></ele><time>2016-10-30T13:6:48Z</time></trkpt>
<trkpt lat="46.47351" lon="6.80521"><ele></ele><time>2016-10-30T13:6:51Z</time></trkpt>
<trkpt lat="46.47358" lon="6.80487"><ele></ele><time>2016-10-30T13:6:54Z</time></trkpt>
<trkpt lat="46.47365" lon="6.80462"><ele></ele><time>2016-10-30T13:6:57Z</time></trkpt>
<trkpt lat="46.47374" lon="6.80431"><ele></ele><time>2016-10-30T13:7:0Z</time></trkpt>
<trkpt lat="46.47375" lon="6.80422"><ele></ele><time>2016-10-30T13:7:3Z</time></trkpt>
<trkpt lat="46.47377" lon="6.80395"><ele></ele><time>2016-10-30T13:7:6Z</time></trkpt>
<trkpt lat="46.4738" lon="6.80375"><ele></ele><time>2016-10-30T13:7:9Z</time></trkpt>
<trkpt lat="46.47386" lon="6.80352"><ele></ele><time>2016-10-30T13:7:12Z</time></trkpt>
<trkpt lat="46.47389" lon="6.80339"><ele></ele><time>2016-10-30T13:7:15Z</time></trkpt>
<trkpt lat="46.47391" lon="6.80311"><ele></ele><time>2016-10-30T13:7:18Z</time></trkpt>
<trkpt lat="46.4739" lon="6.80284"><ele></ele><time>2016-10-30T13:7:21Z</time></trkpt>
<trkpt lat="46.47388" lon="6.80271"><ele></ele><time>2016-10-30T13:7:24Z</time></trkpt>
<trkpt lat="46.47386" lon="6.80247"><ele></ele><time>2016-10-30T13:7:27Z</time></trkpt>
<trkpt lat="46.47388" lon="6.8021"><ele></ele><time>2016-10-30T13:7:30Z</time></trkpt>
<trkpt lat="46.47391" lon="6.80176"><ele></ele><time>2016-10-30T13:7:33Z</time></trkpt>
<trkpt lat="46.47392" lon="6.80165"><ele></ele><time>2016-10-30T13:7:36Z</time></trkpt>
<trkpt lat="46.4739" lon="6.80134"><ele></ele><time>2016-10-30T13:7:39Z</time></trkpt>
<trkpt lat="46.47391" lon="6.80103"><ele></ele><time>2016-10-30T13:7:42Z</time></trkpt>
<trkpt lat="46.47395" lon="6.80074"><ele></ele><time>2016-10-30T13:7:45Z</time></trkpt>
<trkpt lat="46.47399" lon="6.80046"><ele></ele><time>2016-10-30T13:7:48Z</time></trkpt>
<trkpt lat="46.47403" lon="6.80027"><ele></ele><time>2016-10-30T13:7:51Z</time></trkpt>
<trkpt lat="46.47415" lon="6.80002"><ele></ele><time>2016-10-30T13:7:54Z</time></trkpt>
<trkpt lat="46.47419" lon="6.79995"><ele></ele><time>2016-10-30T13:7:57Z</time></trkpt>
<trkpt lat="46.4742" lon="6.79992"><ele></ele><time>2016-10-30T13:8:0Z</time></trkpt>
<trkpt lat="46.47423" lon="6.79985"><ele></ele><time>2016-10-30T13:8:3Z</time></trkpt>
<trkpt lat="46.4742" lon="6.79973"><ele></ele><time>2016-10-30T13:8:6Z</time></trkpt>
<trkpt lat="46.47415" lon="6.79947"><ele></ele><time>2016-10-30T13:8:9Z</time></trkpt>
<trkpt lat="46.47413" lon="6.79939"><ele></ele><time>2016-10-30T13:8:12Z</time></trkpt>
<trkpt lat="46.47412" lon="6.79931"><ele></ele><time>2016-10-30T13:8:15Z</time></trkpt>
<trkpt lat="46.4741" lon="6.79923"><ele></ele><time>2016-10-30T13:8:18Z</time></trkpt>
<trkpt lat="46.47409" lon="6.79915"><ele></ele><time>2016-10-30T13:8:21Z</time></trkpt>
<trkpt lat="46.47411" lon="6.79885"><ele></ele><time>2016-10-30T13:8:24Z</time></trkpt>
<trkpt lat="46.47406" lon="6.79876"><ele></ele><time>2016-10-30T13:8:27Z</time></trkpt>
<trkpt lat="46.47404" lon="6.79873"><ele></ele><time>2016-10-30T13:8:30Z</time></trkpt>
<trkpt lat="46.47392" lon="6.79857"><ele></ele><time>2016-10-30T13:8:33Z</time></trkpt>
<trkpt lat="46.47383" lon="6.79847"><ele></ele><time>2016-10-30T13:8:36Z</time></trkpt>
<trkpt lat="46.47378" lon="6.79832"><ele></ele><time>2016-10-30T13:8:39Z</time></trkpt>
<trkpt lat="46.47378" lon="6.7981"><ele></ele><time>2016-10-30T13:8:42Z</time></trkpt>
<trkpt lat="46.47381" lon="6.7978"><ele></ele><time>2016-10-30T13:8:45Z</time></trkpt>
<trkpt lat="46.47384" lon="6.7975"><ele></ele><time>2016-10-30T13:8:48Z</time></trkpt>
<trkpt lat="46.47387" lon="6.79723"><ele></ele><time>2016-10-30T13:8:51Z</time></trkpt>
<trkpt lat="46.47389" lon="6.79717"><ele></ele><time>2016-10-30T13:8:54Z</time></trkpt>
<trkpt lat="46.47396" lon="6.79689"><ele></ele><time>2016-10-30T13:8:57Z</time></trkpt>
<trkpt lat="46.47404" lon="6.79663"><ele></ele><time>2016-10-30T13:9:0Z</time></trkpt>
<trkpt lat="46.4741" lon="6.79642"><ele></ele><time>2016-10-30T13:9:3Z</time></trkpt>
<trkpt lat="46.47411" lon="6.79635"><ele></ele><time>2016-10-30T13:9:6Z</time></trkpt>
<trkpt lat="46.47413" lon="6.79628"><ele></ele><time>2016-10-30T13:9:9Z</time></trkpt>
<trkpt lat="46.47422" lon="6.79606"><ele></ele><time>2016-10-30T13:9:12Z</time></trkpt>
<trkpt lat="46.47429" lon="6.79593"><ele></ele><time>2016-10-30T13:9:15Z</time></trkpt>
<trkpt lat="46.47435" lon="6.79582"><ele></ele><time>2016-10-30T13:9:18Z</time></trkpt>
<trkpt lat="46.47436" lon="6.79575"><ele></ele><time>2016-10-30T13:9:21Z</time></trkpt>
<trkpt lat="46.47435" lon="6.79571"><ele></ele><time>2016-10-30T13:9:24Z</time></trkpt>
<trkpt lat="46.47433" lon="6.79558"><ele></ele><time>2016-10-30T13:9:27Z</time></trkpt>
<trkpt lat="46.47436" lon="6.79527"><ele></ele><time>2016-10-30T13:9:30Z</time></trkpt>
<trkpt lat="46.47442" lon="6.79502"><ele></ele><time>2016-10-30T13:9:33Z</time></trkpt>
<trkpt lat="46.47446" lon="6.79476"><ele></ele><time>2016-10-30T13:9:36Z</time></trkpt>
<trkpt lat="46.4745" lon="6.7945"><ele></ele><time>2016-10-30T13:9:39Z</time></trkpt>
<trkpt lat="46.47457" lon="6.79424"><ele></ele><time>2016-10-30T13:9:42Z</time></trkpt>
<trkpt lat="46.47467" lon="6.794"><ele></ele><time>2016-10-30T13:9:45Z</time></trkpt>
<trkpt lat="46.47478" lon="6.79377"><ele></ele><time>2016-10-30T13:9:48Z</time></trkpt>
<trkpt lat="46.47488" lon="6.79354"><ele></ele><time>2016-10-30T13:9:51Z</time></trkpt>
<trkpt lat="46.47498" lon="6.79329"><ele></ele><time>2016-10-30T13:9:54Z</time></trkpt>
<trkpt lat="46.47511" lon="6.79299"><ele></ele><time>2016-10-30T13:9:57Z</time></trkpt>
<trkpt lat="46.47519" lon="6.79272"><ele></ele><time>2016-10-30T13:10:0Z</time></trkpt>
<trkpt lat="46.47518" lon="6.79259"><ele></ele><time>2016-10-30T13:10:3Z</time></trkpt>
<trkpt lat="46.47509" lon="6.79264"><ele></ele><time>2016-10-30T13:10:6Z</time></trkpt>
<trkpt lat="46.47505" lon="6.79276"><ele></ele><time>2016-10-30T13:10:9Z</time></trkpt>
<trkpt lat="46.47491" lon="6.79302"><ele></ele><time>2016-10-30T13:10:12Z</time></trkpt>
<trkpt lat="46.47481" lon="6.7931"><ele></ele><time>2016-10-30T13:10:15Z</time></trkpt>
<trkpt lat="46.47483" lon="6.79289"><ele></ele><time>2016-10-30T13:10:18Z</time></trkpt>
<trkpt lat="46.47493" lon="6.79268"><ele></ele><time>2016-10-30T13:10:21Z</time></trkpt>
<trkpt lat="46.47498" lon="6.79255"><ele></ele><time>2016-10-30T13:10:24Z</time></trkpt>
<trkpt lat="46.47504" lon="6.79236"><ele></ele><time>2016-10-30T13:10:27Z</time></trkpt>
<trkpt lat="46.47511" lon="6.79208"><ele></ele><time>2016-10-30T13:10:30Z</time></trkpt>
<trkpt lat="46.47518" lon="6.79179"><ele></ele><time>2016-10-30T13:10:33Z</time></trkpt>
<trkpt lat="46.47526" lon="6.7915"><ele></ele><time>2016-10-30T13:10:36Z</time></trkpt>
<trkpt lat="46.4753" lon="6.79136"><ele></ele><time>2016-10-30T13:10:39Z</time></trkpt>
<trkpt lat="46.4754" lon="6.7911"><ele></ele><time>2016-10-30T13:10:42Z</time></trkpt>
<trkpt lat="46.4755" lon="6.79086"><ele></ele><time>2016-10-30T13:10:45Z</time></trkpt>
<trkpt lat="46.47561" lon="6.79065"><ele></ele><time>2016-10-30T13:10:48Z</time></trkpt>
<trkpt lat="46.47575" lon="6.79044"><ele></ele><time>2016-10-30T13:10:51Z</time></trkpt>
<trkpt lat="46.47582" lon="6.79034"><ele></ele><time>2016-10-30T13:10:54Z</time></trkpt>
<trkpt lat="46.47595" lon="6.79015"><ele></ele><time>2016-10-30T13:10:57Z</time></trkpt>
<trkpt lat="46.47599" lon="6.79009"><ele></ele><time>2016-10-30T13:11:0Z</time></trkpt>
<trkpt lat="46.47611" lon="6.78986"><ele></ele><time>2016-10-30T13:11:3Z</time></trkpt>
<trkpt lat="46.47623" lon="6.78962"><ele></ele><time>2016-10-30T13:11:6Z</time></trkpt>
<trkpt lat="46.47642" lon="6.78927"><ele></ele><time>2016-10-30T13:11:9Z</time></trkpt>
<trkpt lat="46.47653" lon="6.78905"><ele></ele><time>2016-10-30T13:11:12Z</time></trkpt>
<trkpt lat="46.47654" lon="6.78901"><ele></ele><time>2016-10-30T13:11:15Z</time></trkpt>
<trkpt lat="46.47659" lon="6.78874"><ele></ele><time>2016-10-30T13:11:18Z</time></trkpt>
<trkpt lat="46.47663" lon="6.78847"><ele></ele><time>2016-10-30T13:11:21Z</time></trkpt>
<trkpt lat="46.47668" lon="6.78821"><ele></ele><time>2016-10-30T13:11:24Z</time></trkpt>
<trkpt lat="46.47673" lon="6.78794"><ele></ele><time>2016-10-30T13:11:27Z</time></trkpt>
<trkpt lat="46.47676" lon="6.78777"><ele></ele><time>2016-10-30T13:11:30Z</time></trkpt>
<trkpt lat="46.47681" lon="6.78749"><ele></ele><time>2016-10-30T13:11:33Z</time></trkpt>
<trkpt lat="46.47686" lon="6.78724"><ele></ele><time>2016-10-30T13:11:36Z</time></trkpt>
<trkpt lat="46.47692" lon="6.78697"><ele></ele><time>2016-10-30T13:11:39Z</time></trkpt>
<trkpt lat="46.47698" lon="6.78668"><ele></ele><time>2016-10-30T13:11:42Z</time></trkpt>
<trkpt lat="46.47703" lon="6.78641"><ele></ele><time>2016-10-30T13:11:45Z</time></trkpt>
<trkpt lat="46.47706" lon="6.78614"><ele></ele><time>2016-10-30T13:11:48Z</time></trkpt>
<trkpt lat="46.4771" lon="6.78595"><ele></ele><time>2016-10-30T13:11:51Z</time></trkpt>
<trkpt lat="46.47711" lon="6.78581"><ele></ele><time>2016-10-30T13:11:54Z</time></trkpt>
<trkpt lat="46.47715" lon="6.78555"><ele></ele><time>2016-10-30T13:11:57Z</time></trkpt>
<trkpt lat="46.47719" lon="6.78517"><ele></ele><time>2016-10-30T13:12:0Z</time></trkpt>
<trkpt lat="46.47725" lon="6.78491"><ele></ele><time>2016-10-30T13:12:3Z</time></trkpt>
<trkpt lat="46.47727" lon="6.78486"><ele></ele><time>2016-10-30T13:12:6Z</time></trkpt>
<trkpt lat="46.47735" lon="6.78461"><ele></ele><time>2016-10-30T13:12:9Z</time></trkpt>
<trkpt lat="46.47741" lon="6.78442"><ele></ele><time>2016-10-30T13:12:12Z</time></trkpt>
<trkpt lat="46.47748" lon="6.78417"><ele></ele><time>2016-10-30T13:12:15Z</time></trkpt>
<trkpt lat="46.47758" lon="6.78391"><ele></ele><time>2016-10-30T13:12:18Z</time></trkpt>
<trkpt lat="46.47767" lon="6.78368"><ele></ele><time>2016-10-30T13:12:21Z</time></trkpt>
<trkpt lat="46.47778" lon="6.78343"><ele></ele><time>2016-10-30T13:12:24Z</time></trkpt>
<trkpt lat="46.47785" lon="6.78328"><ele></ele><time>2016-10-30T13:12:27Z</time></trkpt>
<trkpt lat="46.47795" lon="6.78303"><ele></ele><time>2016-10-30T13:12:30Z</time></trkpt>
<trkpt lat="46.47805" lon="6.78279"><ele></ele><time>2016-10-30T13:12:33Z</time></trkpt>
<trkpt lat="46.47808" lon="6.78273"><ele></ele><time>2016-10-30T13:12:36Z</time></trkpt>
<trkpt lat="46.47822" lon="6.78243"><ele></ele><time>2016-10-30T13:12:39Z</time></trkpt>
<trkpt lat="46.47834" lon="6.7822"><ele></ele><time>2016-10-30T13:12:42Z</time></trkpt>
<trkpt lat="46.47844" lon="6.78196"><ele></ele><time>2016-10-30T13:12:45Z</time></trkpt>
<trkpt lat="46.47844" lon="6.78169"><ele></ele><time>2016-10-30T13:12:48Z</time></trkpt>
<trkpt lat="46.47837" lon="6.78143"><ele></ele><time>2016-10-30T13:12:51Z</time></trkpt>
<trkpt lat="46.47834" lon="6.78128"><ele></ele><time>2016-10-30T13:12:54Z</time></trkpt>
<trkpt lat="46.47847" lon="6.78114"><ele></ele><time>2016-10-30T13:12:57Z</time></trkpt>
<trkpt lat="46.47852" lon="6.78111"><ele></ele><time>2016-10-30T13:13:0Z</time></trkpt>
<trkpt lat="46.4786" lon="6.78107"><ele></ele><time>2016-10-30T13:13:3Z</time></trkpt>
<trkpt lat="46.47868" lon="6.78101"><ele></ele><time>2016-10-30T13:13:6Z</time></trkpt>
<trkpt lat="46.47872" lon="6.78093"><ele></ele><time>2016-10-30T13:13:9Z</time></trkpt>
<trkpt lat="46.47868" lon="6.78076"><ele></ele><time>2016-10-30T13:13:12Z</time></trkpt>
<trkpt lat="46.47854" lon="6.78054"><ele></ele><time>2016-10-30T13:13:15Z</time></trkpt>
<trkpt lat="46.47843" lon="6.78034"><ele></ele><time>2016-10-30T13:13:18Z</time></trkpt>
<trkpt lat="46.4784" lon="6.78025"><ele></ele><time>2016-10-30T13:13:21Z</time></trkpt>
<trkpt lat="46.47831" lon="6.77989"><ele></ele><time>2016-10-30T13:13:24Z</time></trkpt>
<trkpt lat="46.47826" lon="6.77961"><ele></ele><time>2016-10-30T13:13:27Z</time></trkpt>
<trkpt lat="46.47825" lon="6.77946"><ele></ele><time>2016-10-30T13:13:30Z</time></trkpt>
<trkpt lat="46.47825" lon="6.77918"><ele></ele><time>2016-10-30T13:13:33Z</time></trkpt>
<trkpt lat="46.47826" lon="6.77889"><ele></ele><time>2016-10-30T13:13:36Z</time></trkpt>
<trkpt lat="46.47825" lon="6.77859"><ele></ele><time>2016-10-30T13:13:39Z</time></trkpt>
<trkpt lat="46.4782" lon="6.77823"><ele></ele><time>2016-10-30T13:13:42Z</time></trkpt>
<trkpt lat="46.4781" lon="6.77794"><ele></ele><time>2016-10-30T13:13:45Z</time></trkpt>
<trkpt lat="46.47802" lon="6.77778"><ele></ele><time>2016-10-30T13:13:48Z</time></trkpt>
<trkpt lat="46.47793" lon="6.77764"><ele></ele><time>2016-10-30T13:13:51Z</time></trkpt>
<trkpt lat="46.47789" lon="6.77758"><ele></ele><time>2016-10-30T13:13:54Z</time></trkpt>
<trkpt lat="46.47783" lon="6.77748"><ele></ele><time>2016-10-30T13:13:57Z</time></trkpt>
<trkpt lat="46.47781" lon="6.77743"><ele></ele><time>2016-10-30T13:14:0Z</time></trkpt>
<trkpt lat="46.4777" lon="6.77727"><ele></ele><time>2016-10-30T13:14:3Z</time></trkpt>
<trkpt lat="46.47766" lon="6.77721"><ele></ele><time>2016-10-30T13:14:6Z</time></trkpt>
<trkpt lat="46.47763" lon="6.77708"><ele></ele><time>2016-10-30T13:14:9Z</time></trkpt>
<trkpt lat="46.47763" lon="6.77706"><ele></ele><time>2016-10-30T13:14:12Z</time></trkpt>
<trkpt lat="46.47764" lon="6.77699"><ele></ele><time>2016-10-30T13:14:15Z</time></trkpt>
<trkpt lat="46.47765" lon="6.77698"><ele></ele><time>2016-10-30T13:14:18Z</time></trkpt>
<trkpt lat="46.47766" lon="6.77695"><ele></ele><time>2016-10-30T13:14:21Z</time></trkpt>
<trkpt lat="46.47771" lon="6.77692"><ele></ele><time>2016-10-30T13:14:24Z</time></trkpt>
<trkpt lat="46.47775" lon="6.77689"><ele></ele><time>2016-10-30T13:14:27Z</time></trkpt>
<trkpt lat="46.47777" lon="6.77686"><ele></ele><time>2016-10-30T13:14:30Z</time></trkpt>
<trkpt lat="46.47778" lon="6.77683"><ele></ele><time>2016-10-30T13:14:33Z</time></trkpt>
<trkpt lat="46.47778" lon="6.77681"><ele></ele><time>2016-10-30T13:14:36Z</time></trkpt>
<trkpt lat="46.47779" lon="6.77679"><ele></ele><time>2016-10-30T13:14:39Z</time></trkpt>
<trkpt lat="46.47784" lon="6.77676"><ele></ele><time>2016-10-30T13:14:42Z</time></trkpt>
<trkpt lat="46.47792" lon="6.7767"><ele></ele><time>2016-10-30T13:14:45Z</time></trkpt>
<trkpt lat="46.47793" lon="6.77667"><ele></ele><time>2016-10-30T13:14:48Z</time></trkpt>
<trkpt lat="46.47798" lon="6.77663"><ele></ele><time>2016-10-30T13:14:51Z</time></trkpt>
<trkpt lat="46.47806" lon="6.77655"><ele></ele><time>2016-10-30T13:14:54Z</time></trkpt>
<trkpt lat="46.4781" lon="6.77652"><ele></ele><time>2016-10-30T13:14:57Z</time></trkpt>
<trkpt lat="46.47818" lon="6.7765"><ele></ele><time>2016-10-30T13:15:0Z</time></trkpt>
<trkpt lat="46.47835" lon="6.77639"><ele></ele><time>2016-10-30T13:15:3Z</time></trkpt>
<trkpt lat="46.47843" lon="6.7763"><ele></ele><time>2016-10-30T13:15:6Z</time></trkpt>
<trkpt lat="46.47862" lon="6.77622"><ele></ele><time>2016-10-30T13:15:9Z</time></trkpt>
<trkpt lat="46.47884" lon="6.77623"><ele></ele><time>2016-10-30T13:15:12Z</time></trkpt>
<trkpt lat="46.47904" lon="6.77616"><ele></ele><time>2016-10-30T13:15:15Z</time></trkpt>
<trkpt lat="46.47914" lon="6.77593"><ele></ele><time>2016-10-30T13:15:18Z</time></trkpt>
<trkpt lat="46.47909" lon="6.77568"><ele></ele><time>2016-10-30T13:15:21Z</time></trkpt>
<trkpt lat="46.479" lon="6.77555"><ele></ele><time>2016-10-30T13:15:24Z</time></trkpt>
<trkpt lat="46.47896" lon="6.7755"><ele></ele><time>2016-10-30T13:15:27Z</time></trkpt>
<trkpt lat="46.47886" lon="6.77523"><ele></ele><time>2016-10-30T13:15:30Z</time></trkpt>
<trkpt lat="46.47882" lon="6.77518"><ele></ele><time>2016-10-30T13:15:33Z</time></trkpt>
<trkpt lat="46.47868" lon="6.77495"><ele></ele><time>2016-10-30T13:15:36Z</time></trkpt>
<trkpt lat="46.47864" lon="6.77471"><ele></ele><time>2016-10-30T13:15:39Z</time></trkpt>
<trkpt lat="46.47862" lon="6.77462"><ele></ele><time>2016-10-30T13:15:42Z</time></trkpt>
<trkpt lat="46.47862" lon="6.77457"><ele></ele><time>2016-10-30T13:15:45Z</time></trkpt>
<trkpt lat="46.47862" lon="6.77428"><ele></ele><time>2016-10-30T13:15:48Z</time></trkpt>
<trkpt lat="46.47861" lon="6.77395"><ele></ele><time>2016-10-30T13:15:51Z</time></trkpt>
<trkpt lat="46.47862" lon="6.77362"><ele></ele><time>2016-10-30T13:15:54Z</time></trkpt>
<trkpt lat="46.47868" lon="6.77327"><ele></ele><time>2016-10-30T13:15:57Z</time></trkpt>
<trkpt lat="46.47871" lon="6.77317"><ele></ele><time>2016-10-30T13:16:0Z</time></trkpt>
<trkpt lat="46.47873" lon="6.77308"><ele></ele><time>2016-10-30T13:16:3Z</time></trkpt>
<trkpt lat="46.47864" lon="6.7728"><ele></ele><time>2016-10-30T13:16:6Z</time></trkpt>
<trkpt lat="46.47858" lon="6.7727"><ele></ele><time>2016-10-30T13:16:9Z</time></trkpt>
<trkpt lat="46.47845" lon="6.7725"><ele></ele><time>2016-10-30T13:16:12Z</time></trkpt>
<trkpt lat="46.47833" lon="6.77228"><ele></ele><time>2016-10-30T13:16:15Z</time></trkpt>
<trkpt lat="46.47822" lon="6.77208"><ele></ele><time>2016-10-30T13:16:18Z</time></trkpt>
<trkpt lat="46.47809" lon="6.77186"><ele></ele><time>2016-10-30T13:16:21Z</time></trkpt>
<trkpt lat="46.47805" lon="6.77178"><ele></ele><time>2016-10-30T13:16:24Z</time></trkpt>
<trkpt lat="46.47796" lon="6.77187"><ele></ele><time>2016-10-30T13:16:27Z</time></trkpt>
<trkpt lat="46.47784" lon="6.77207"><ele></ele><time>2016-10-30T13:16:30Z</time></trkpt>
<trkpt lat="46.47773" lon="6.77226"><ele></ele><time>2016-10-30T13:16:33Z</time></trkpt>
<trkpt lat="46.47758" lon="6.77249"><ele></ele><time>2016-10-30T13:16:36Z</time></trkpt>
<trkpt lat="46.47754" lon="6.77258"><ele></ele><time>2016-10-30T13:16:39Z</time></trkpt>
<trkpt lat="46.4775" lon="6.77269"><ele></ele><time>2016-10-30T13:16:42Z</time></trkpt>
<trkpt lat="46.47741" lon="6.77293"><ele></ele><time>2016-10-30T13:16:45Z</time></trkpt>
<trkpt lat="46.47728" lon="6.77317"><ele></ele><time>2016-10-30T13:16:48Z</time></trkpt>
<trkpt lat="46.47711" lon="6.77342"><ele></ele><time>2016-10-30T13:16:51Z</time></trkpt>
<trkpt lat="46.47696" lon="6.7737"><ele></ele><time>2016-10-30T13:16:54Z</time></trkpt>
<trkpt lat="46.47685" lon="6.774"><ele></ele><time>2016-10-30T13:16:57Z</time></trkpt>
<trkpt lat="46.47676" lon="6.77425"><ele></ele><time>2016-10-30T13:17:0Z</time></trkpt>
<trkpt lat="46.47664" lon="6.77452"><ele></ele><time>2016-10-30T13:17:3Z</time></trkpt>
<trkpt lat="46.47661" lon="6.77457"><ele></ele><time>2016-10-30T13:17:6Z</time></trkpt>
<trkpt lat="46.47656" lon="6.77464"><ele></ele><time>2016-10-30T13:17:9Z</time></trkpt>
<trkpt lat="46.47651" lon="6.77463"><ele></ele><time>2016-10-30T13:17:12Z</time></trkpt>
<trkpt lat="46.47655" lon="6.7744"><ele></ele><time>2016-10-30T13:17:15Z</time></trkpt>
<trkpt lat="46.47661" lon="6.77414"><ele></ele><time>2016-10-30T13:17:18Z</time></trkpt>
<trkpt lat="46.47668" lon="6.77393"><ele></ele><time>2016-10-30T13:17:21Z</time></trkpt>
<trkpt lat="46.47673" lon="6.77379"><ele></ele><time>2016-10-30T13:17:24Z</time></trkpt>
<trkpt lat="46.47676" lon="6.77373"><ele></ele><time>2016-10-30T13:17:27Z</time></trkpt>
<trkpt lat="46.47689" lon="6.77348"><ele></ele><time>2016-10-30T13:17:30Z</time></trkpt>
<trkpt lat="46.47702" lon="6.77321"><ele></ele><time>2016-10-30T13:17:33Z</time></trkpt>
<trkpt lat="46.4771" lon="6.77292"><ele></ele><time>2016-10-30T13:17:36Z</time></trkpt>
<trkpt lat="46.47712" lon="6.7728"><ele></ele><time>2016-10-30T13:17:39Z</time></trkpt>
<trkpt lat="46.47718" lon="6.77255"><ele></ele><time>2016-10-30T13:17:42Z</time></trkpt>
<trkpt lat="46.47726" lon="6.77227"><ele></ele><time>2016-10-30T13:17:45Z</time></trkpt>
<trkpt lat="46.47733" lon="6.77201"><ele></ele><time>2016-10-30T13:17:48Z</time></trkpt>
<trkpt lat="46.47741" lon="6.77169"><ele></ele><time>2016-10-30T13:17:51Z</time></trkpt>
<trkpt lat="46.47744" lon="6.77161"><ele></ele><time>2016-10-30T13:17:54Z</time></trkpt>
<trkpt lat="46.47757" lon="6.7714"><ele></ele><time>2016-10-30T13:17:57Z</time></trkpt>
<trkpt lat="46.47771" lon="6.77119"><ele></ele><time>2016-10-30T13:18:0Z</time></trkpt>
<trkpt lat="46.47781" lon="6.77095"><ele></ele><time>2016-10-30T13:18:3Z</time></trkpt>
<trkpt lat="46.4779" lon="6.77065"><ele></ele><time>2016-10-30T13:18:6Z</time></trkpt>
<trkpt lat="46.478" lon="6.77037"><ele></ele><time>2016-10-30T13:18:9Z</time></trkpt>
<trkpt lat="46.47802" lon="6.7703"><ele></ele><time>2016-10-30T13:18:12Z</time></trkpt>
<trkpt lat="46.47808" lon="6.77005"><ele></ele><time>2016-10-30T13:18:15Z</time></trkpt>
<trkpt lat="46.47818" lon="6.7698"><ele></ele><time>2016-10-30T13:18:18Z</time></trkpt>
<trkpt lat="46.47829" lon="6.76953"><ele></ele><time>2016-10-30T13:18:21Z</time></trkpt>
<trkpt lat="46.47832" lon="6.76943"><ele></ele><time>2016-10-30T13:18:24Z</time></trkpt>
<trkpt lat="46.4784" lon="6.76909"><ele></ele><time>2016-10-30T13:18:27Z</time></trkpt>
<trkpt lat="46.47848" lon="6.76874"><ele></ele><time>2016-10-30T13:18:30Z</time></trkpt>
<trkpt lat="46.47853" lon="6.76848"><ele></ele><time>2016-10-30T13:18:33Z</time></trkpt>
<trkpt lat="46.47859" lon="6.76822"><ele></ele><time>2016-10-30T13:18:36Z</time></trkpt>
<trkpt lat="46.47866" lon="6.76795"><ele></ele><time>2016-10-30T13:18:39Z</time></trkpt>
<trkpt lat="46.47874" lon="6.76769"><ele></ele><time>2016-10-30T13:18:42Z</time></trkpt>
<trkpt lat="46.47882" lon="6.76744"><ele></ele><time>2016-10-30T13:18:45Z</time></trkpt>
<trkpt lat="46.47892" lon="6.76722"><ele></ele><time>2016-10-30T13:18:48Z</time></trkpt>
<trkpt lat="46.47901" lon="6.76703"><ele></ele><time>2016-10-30T13:18:51Z</time></trkpt>
<trkpt lat="46.47904" lon="6.76694"><ele></ele><time>2016-10-30T13:18:54Z</time></trkpt>
<trkpt lat="46.47908" lon="6.76686"><ele></ele><time>2016-10-30T13:18:57Z</time></trkpt>
<trkpt lat="46.47911" lon="6.76679"><ele></ele><time>2016-10-30T13:19:0Z</time></trkpt>
<trkpt lat="46.47921" lon="6.76656"><ele></ele><time>2016-10-30T13:19:3Z</time></trkpt>
<trkpt lat="46.47933" lon="6.76626"><ele></ele><time>2016-10-30T13:19:6Z</time></trkpt>
<trkpt lat="46.47941" lon="6.76602"><ele></ele><time>2016-10-30T13:19:9Z</time></trkpt>
<trkpt lat="46.47949" lon="6.76576"><ele></ele><time>2016-10-30T13:19:12Z</time></trkpt>
<trkpt lat="46.47959" lon="6.76551"><ele></ele><time>2016-10-30T13:19:15Z</time></trkpt>
<trkpt lat="46.47968" lon="6.76521"><ele></ele><time>2016-10-30T13:19:18Z</time></trkpt>
<trkpt lat="46.4797" lon="6.76512"><ele></ele><time>2016-10-30T13:19:21Z</time></trkpt>
<trkpt lat="46.47975" lon="6.76486"><ele></ele><time>2016-10-30T13:19:24Z</time></trkpt>
<trkpt lat="46.4798" lon="6.76464"><ele></ele><time>2016-10-30T13:19:27Z</time></trkpt>
<trkpt lat="46.47992" lon="6.76435"><ele></ele><time>2016-10-30T13:19:30Z</time></trkpt>
<trkpt lat="46.48002" lon="6.76412"><ele></ele><time>2016-10-30T13:19:33Z</time></trkpt>
<trkpt lat="46.48014" lon="6.76388"><ele></ele><time>2016-10-30T13:19:36Z</time></trkpt>
<trkpt lat="46.4802" lon="6.76378"><ele></ele><time>2016-10-30T13:19:39Z</time></trkpt>
<trkpt lat="46.48029" lon="6.76367"><ele></ele><time>2016-10-30T13:19:42Z</time></trkpt>
<trkpt lat="46.48043" lon="6.76348"><ele></ele><time>2016-10-30T13:19:45Z</time></trkpt>
<trkpt lat="46.48048" lon="6.76339"><ele></ele><time>2016-10-30T13:19:48Z</time></trkpt>
<trkpt lat="46.48053" lon="6.76329"><ele></ele><time>2016-10-30T13:19:51Z</time></trkpt>
<trkpt lat="46.48056" lon="6.76324"><ele></ele><time>2016-10-30T13:19:54Z</time></trkpt>
<trkpt lat="46.48062" lon="6.76313"><ele></ele><time>2016-10-30T13:19:57Z</time></trkpt>
<trkpt lat="46.48071" lon="6.76291"><ele></ele><time>2016-10-30T13:20:0Z</time></trkpt>
<trkpt lat="46.48084" lon="6.76265"><ele></ele><time>2016-10-30T13:20:3Z</time></trkpt>
<trkpt lat="46.48096" lon="6.76243"><ele></ele><time>2016-10-30T13:20:6Z</time></trkpt>
<trkpt lat="46.48105" lon="6.76226"><ele></ele><time>2016-10-30T13:20:9Z</time></trkpt>
<trkpt lat="46.48108" lon="6.7622"><ele></ele><time>2016-10-30T13:20:12Z</time></trkpt>
<trkpt lat="46.48118" lon="6.76205"><ele></ele><time>2016-10-30T13:20:15Z</time></trkpt>
<trkpt lat="46.48133" lon="6.76182"><ele></ele><time>2016-10-30T13:20:18Z</time></trkpt>
<trkpt lat="46.48145" lon="6.76162"><ele></ele><time>2016-10-30T13:20:21Z</time></trkpt>
<trkpt lat="46.48156" lon="6.76141"><ele></ele><time>2016-10-30T13:20:24Z</time></trkpt>
<trkpt lat="46.48168" lon="6.76115"><ele></ele><time>2016-10-30T13:20:27Z</time></trkpt>
<trkpt lat="46.48179" lon="6.76085"><ele></ele><time>2016-10-30T13:20:30Z</time></trkpt>
<trkpt lat="46.48183" lon="6.76077"><ele></ele><time>2016-10-30T13:20:33Z</time></trkpt>
<trkpt lat="46.48195" lon="6.76056"><ele></ele><time>2016-10-30T13:20:36Z</time></trkpt>
<trkpt lat="46.48208" lon="6.76037"><ele></ele><time>2016-10-30T13:20:39Z</time></trkpt>
<trkpt lat="46.48216" lon="6.76027"><ele></ele><time>2016-10-30T13:20:42Z</time></trkpt>
<trkpt lat="46.48234" lon="6.7601"><ele></ele><time>2016-10-30T13:20:45Z</time></trkpt>
<trkpt lat="46.48249" lon="6.75992"><ele></ele><time>2016-10-30T13:20:48Z</time></trkpt>
<trkpt lat="46.48275" lon="6.7596"><ele></ele><time>2016-10-30T13:20:51Z</time></trkpt>
<trkpt lat="46.48291" lon="6.7594"><ele></ele><time>2016-10-30T13:20:54Z</time></trkpt>
<trkpt lat="46.48304" lon="6.75923"><ele></ele><time>2016-10-30T13:20:57Z</time></trkpt>
<trkpt lat="46.4832" lon="6.75905"><ele></ele><time>2016-10-30T13:21:0Z</time></trkpt>
<trkpt lat="46.48335" lon="6.75888"><ele></ele><time>2016-10-30T13:21:3Z</time></trkpt>
<trkpt lat="46.48342" lon="6.7588"><ele></ele><time>2016-10-30T13:21:6Z</time></trkpt>
<trkpt lat="46.48354" lon="6.75865"><ele></ele><time>2016-10-30T13:21:9Z</time></trkpt>
<trkpt lat="46.4837" lon="6.75845"><ele></ele><time>2016-10-30T13:21:12Z</time></trkpt>
<trkpt lat="46.48381" lon="6.75823"><ele></ele><time>2016-10-30T13:21:15Z</time></trkpt>
<trkpt lat="46.48385" lon="6.75817"><ele></ele><time>2016-10-30T13:21:18Z</time></trkpt>
<trkpt lat="46.48404" lon="6.75799"><ele></ele><time>2016-10-30T13:21:21Z</time></trkpt>
<trkpt lat="46.48418" lon="6.75788"><ele></ele><time>2016-10-30T13:21:24Z</time></trkpt>
<trkpt lat="46.48422" lon="6.75784"><ele></ele><time>2016-10-30T13:21:27Z</time></trkpt>
<trkpt lat="46.48437" lon="6.75765"><ele></ele><time>2016-10-30T13:21:30Z</time></trkpt>
<trkpt lat="46.48453" lon="6.75743"><ele></ele><time>2016-10-30T13:21:33Z</time></trkpt>
<trkpt lat="46.48468" lon="6.7572"><ele></ele><time>2016-10-30T13:21:36Z</time></trkpt>
<trkpt lat="46.48478" lon="6.75704"><ele></ele><time>2016-10-30T13:21:39Z</time></trkpt>
<trkpt lat="46.48485" lon="6.75688"><ele></ele><time>2016-10-30T13:21:42Z</time></trkpt>
<trkpt lat="46.48493" lon="6.75674"><ele></ele><time>2016-10-30T13:21:45Z</time></trkpt>
<trkpt lat="46.48508" lon="6.75656"><ele></ele><time>2016-10-30T13:21:48Z</time></trkpt>
<trkpt lat="46.48518" lon="6.75643"><ele></ele><time>2016-10-30T13:21:51Z</time></trkpt>
<trkpt lat="46.48527" lon="6.7563"><ele></ele><time>2016-10-30T13:21:54Z</time></trkpt>
<trkpt lat="46.48539" lon="6.75605"><ele></ele><time>2016-10-30T13:21:57Z</time></trkpt>
<trkpt lat="46.48551" lon="6.75578"><ele></ele><time>2016-10-30T13:22:0Z</time></trkpt>
<trkpt lat="46.48565" lon="6.75547"><ele></ele><time>2016-10-30T13:22:3Z</time></trkpt>
<trkpt lat="46.48576" lon="6.75525"><ele></ele><time>2016-10-30T13:22:6Z</time></trkpt>
<trkpt lat="46.48589" lon="6.75504"><ele></ele><time>2016-10-30T13:22:9Z</time></trkpt>
<trkpt lat="46.48609" lon="6.75482"><ele></ele><time>2016-10-30T13:22:12Z</time></trkpt>
<trkpt lat="46.48629" lon="6.75465"><ele></ele><time>2016-10-30T13:22:15Z</time></trkpt>
<trkpt lat="46.48645" lon="6.7545"><ele></ele><time>2016-10-30T13:22:18Z</time></trkpt>
<trkpt lat="46.48661" lon="6.75433"><ele></ele><time>2016-10-30T13:22:21Z</time></trkpt>
<trkpt lat="46.48678" lon="6.75413"><ele></ele><time>2016-10-30T13:22:24Z</time></trkpt>
<trkpt lat="46.48688" lon="6.754"><ele></ele><time>2016-10-30T13:22:27Z</time></trkpt>
<trkpt lat="46.48702" lon="6.75373"><ele></ele><time>2016-10-30T13:22:30Z</time></trkpt>
<trkpt lat="46.48713" lon="6.75353"><ele></ele><time>2016-10-30T13:22:33Z</time></trkpt>
<trkpt lat="46.48729" lon="6.75325"><ele></ele><time>2016-10-30T13:22:36Z</time></trkpt>
<trkpt lat="46.48742" lon="6.75302"><ele></ele><time>2016-10-30T13:22:39Z</time></trkpt>
<trkpt lat="46.48755" lon="6.75277"><ele></ele><time>2016-10-30T13:22:42Z</time></trkpt>
<trkpt lat="46.48768" lon="6.75251"><ele></ele><time>2016-10-30T13:22:45Z</time></trkpt>
<trkpt lat="46.48781" lon="6.75231"><ele></ele><time>2016-10-30T13:22:48Z</time></trkpt>
<trkpt lat="46.48784" lon="6.75226"><ele></ele><time>2016-10-30T13:22:51Z</time></trkpt>
<trkpt lat="46.48789" lon="6.75214"><ele></ele><time>2016-10-30T13:22:54Z</time></trkpt>
<trkpt lat="46.48799" lon="6.75186"><ele></ele><time>2016-10-30T13:22:57Z</time></trkpt>
<trkpt lat="46.48807" lon="6.75169"><ele></ele><time>2016-10-30T13:23:0Z</time></trkpt>
<trkpt lat="46.48822" lon="6.75142"><ele></ele><time>2016-10-30T13:23:3Z</time></trkpt>
<trkpt lat="46.48827" lon="6.75132"><ele></ele><time>2016-10-30T13:23:6Z</time></trkpt>
<trkpt lat="46.48835" lon="6.75101"><ele></ele><time>2016-10-30T13:23:9Z</time></trkpt>
<trkpt lat="46.4884" lon="6.75073"><ele></ele><time>2016-10-30T13:23:12Z</time></trkpt>
<trkpt lat="46.48844" lon="6.75056"><ele></ele><time>2016-10-30T13:23:15Z</time></trkpt>
<trkpt lat="46.48856" lon="6.7503"><ele></ele><time>2016-10-30T13:23:18Z</time></trkpt>
<trkpt lat="46.4886" lon="6.75025"><ele></ele><time>2016-10-30T13:23:21Z</time></trkpt>
<trkpt lat="46.48864" lon="6.75019"><ele></ele><time>2016-10-30T13:23:24Z</time></trkpt>
<trkpt lat="46.48878" lon="6.75003"><ele></ele><time>2016-10-30T13:23:27Z</time></trkpt>
<trkpt lat="46.48896" lon="6.7499"><ele></ele><time>2016-10-30T13:23:30Z</time></trkpt>
<trkpt lat="46.48916" lon="6.74976"><ele></ele><time>2016-10-30T13:23:33Z</time></trkpt>
<trkpt lat="46.48931" lon="6.74952"><ele></ele><time>2016-10-30T13:23:36Z</time></trkpt>
<trkpt lat="46.4894" lon="6.74923"><ele></ele><time>2016-10-30T13:23:39Z</time></trkpt>
<trkpt lat="46.48943" lon="6.74901"><ele></ele><time>2016-10-30T13:23:42Z</time></trkpt>
<trkpt lat="46.48949" lon="6.74864"><ele></ele><time>2016-10-30T13:23:45Z</time></trkpt>
<trkpt lat="46.48953" lon="6.74838"><ele></ele><time>2016-10-30T13:23:48Z</time></trkpt>
<trkpt lat="46.48958" lon="6.74813"><ele></ele><time>2016-10-30T13:23:51Z</time></trkpt>
<trkpt lat="46.48966" lon="6.74788"><ele></ele><time>2016-10-30T13:23:54Z</time></trkpt>
<trkpt lat="46.48976" lon="6.74762"><ele></ele><time>2016-10-30T13:23:57Z</time></trkpt>
<trkpt lat="46.48986" lon="6.74736"><ele></ele><time>2016-10-30T13:24:0Z</time></trkpt>
<trkpt lat="46.48995" lon="6.74713"><ele></ele><time>2016-10-30T13:24:3Z</time></trkpt>
<trkpt lat="46.49003" lon="6.74696"><ele></ele><time>2016-10-30T13:24:6Z</time></trkpt>
<trkpt lat="46.49016" lon="6.74673"><ele></ele><time>2016-10-30T13:24:9Z</time></trkpt>
<trkpt lat="46.49032" lon="6.74647"><ele></ele><time>2016-10-30T13:24:12Z</time></trkpt>
<trkpt lat="46.49042" lon="6.7463"><ele></ele><time>2016-10-30T13:24:15Z</time></trkpt>
<trkpt lat="46.49059" lon="6.74602"><ele></ele><time>2016-10-30T13:24:18Z</time></trkpt>
<trkpt lat="46.49067" lon="6.74586"><ele></ele><time>2016-10-30T13:24:21Z</time></trkpt>
<trkpt lat="46.49075" lon="6.74555"><ele></ele><time>2016-10-30T13:24:24Z</time></trkpt>
<trkpt lat="46.49076" lon="6.74546"><ele></ele><time>2016-10-30T13:24:27Z</time></trkpt>
<trkpt lat="46.49077" lon="6.74527"><ele></ele><time>2016-10-30T13:24:30Z</time></trkpt>
<trkpt lat="46.49083" lon="6.74496"><ele></ele><time>2016-10-30T13:24:33Z</time></trkpt>
<trkpt lat="46.49087" lon="6.7448"><ele></ele><time>2016-10-30T13:24:36Z</time></trkpt>
<trkpt lat="46.49098" lon="6.74466"><ele></ele><time>2016-10-30T13:24:39Z</time></trkpt>
<trkpt lat="46.49098" lon="6.74465"><ele></ele><time>2016-10-30T13:24:42Z</time></trkpt>
<trkpt lat="46.49111" lon="6.74463"><ele></ele><time>2016-10-30T13:24:45Z</time></trkpt>
<trkpt lat="46.49128" lon="6.74453"><ele></ele><time>2016-10-30T13:24:48Z</time></trkpt>
<trkpt lat="46.49138" lon="6.74437"><ele></ele><time>2016-10-30T13:24:51Z</time></trkpt>
<trkpt lat="46.4914" lon="6.74422"><ele></ele><time>2016-10-30T13:24:54Z</time></trkpt>
<trkpt lat="46.49145" lon="6.74398"><ele></ele><time>2016-10-30T13:24:57Z</time></trkpt>
<trkpt lat="46.49158" lon="6.74388"><ele></ele><time>2016-10-30T13:25:0Z</time></trkpt>
<trkpt lat="46.49174" lon="6.74374"><ele></ele><time>2016-10-30T13:25:3Z</time></trkpt>
<trkpt lat="46.49192" lon="6.74366"><ele></ele><time>2016-10-30T13:25:6Z</time></trkpt>
<trkpt lat="46.49192" lon="6.74352"><ele></ele><time>2016-10-30T13:25:9Z</time></trkpt>
<trkpt lat="46.49194" lon="6.74322"><ele></ele><time>2016-10-30T13:25:12Z</time></trkpt>
<trkpt lat="46.49192" lon="6.74294"><ele></ele><time>2016-10-30T13:25:15Z</time></trkpt>
<trkpt lat="46.49188" lon="6.74264"><ele></ele><time>2016-10-30T13:25:18Z</time></trkpt>
<trkpt lat="46.49182" lon="6.74233"><ele></ele><time>2016-10-30T13:25:21Z</time></trkpt>
<trkpt lat="46.49177" lon="6.74204"><ele></ele><time>2016-10-30T13:25:24Z</time></trkpt>
<trkpt lat="46.49172" lon="6.74169"><ele></ele><time>2016-10-30T13:25:27Z</time></trkpt>
<trkpt lat="46.49167" lon="6.74134"><ele></ele><time>2016-10-30T13:25:30Z</time></trkpt>
<trkpt lat="46.4916" lon="6.74111"><ele></ele><time>2016-10-30T13:25:33Z</time></trkpt>
<trkpt lat="46.49154" lon="6.7409"><ele></ele><time>2016-10-30T13:25:36Z</time></trkpt>
<trkpt lat="46.49149" lon="6.74054"><ele></ele><time>2016-10-30T13:25:39Z</time></trkpt>
<trkpt lat="46.49149" lon="6.74018"><ele></ele><time>2016-10-30T13:25:42Z</time></trkpt>
<trkpt lat="46.49148" lon="6.73995"><ele></ele><time>2016-10-30T13:25:45Z</time></trkpt>
<trkpt lat="46.49146" lon="6.73983"><ele></ele><time>2016-10-30T13:25:48Z</time></trkpt>
<trkpt lat="46.49134" lon="6.73951"><ele></ele><time>2016-10-30T13:25:51Z</time></trkpt>
<trkpt lat="46.49122" lon="6.73934"><ele></ele><time>2016-10-30T13:25:54Z</time></trkpt>
<trkpt lat="46.49112" lon="6.73918"><ele></ele><time>2016-10-30T13:25:57Z</time></trkpt>
<trkpt lat="46.49109" lon="6.73911"><ele></ele><time>2016-10-30T13:26:0Z</time></trkpt>
<trkpt lat="46.49107" lon="6.73882"><ele></ele><time>2016-10-30T13:26:3Z</time></trkpt>
<trkpt lat="46.49111" lon="6.73862"><ele></ele><time>2016-10-30T13:26:6Z</time></trkpt>
<trkpt lat="46.49117" lon="6.73833"><ele></ele><time>2016-10-30T13:26:9Z</time></trkpt>
<trkpt lat="46.49122" lon="6.73803"><ele></ele><time>2016-10-30T13:26:12Z</time></trkpt>
<trkpt lat="46.49125" lon="6.73783"><ele></ele><time>2016-10-30T13:26:15Z</time></trkpt>
<trkpt lat="46.49128" lon="6.73753"><ele></ele><time>2016-10-30T13:26:18Z</time></trkpt>
<trkpt lat="46.4913" lon="6.73723"><ele></ele><time>2016-10-30T13:26:21Z</time></trkpt>
<trkpt lat="46.4913" lon="6.73693"><ele></ele><time>2016-10-30T13:26:24Z</time></trkpt>
<trkpt lat="46.49129" lon="6.73665"><ele></ele><time>2016-10-30T13:26:27Z</time></trkpt>
<trkpt lat="46.49128" lon="6.73631"><ele></ele><time>2016-10-30T13:26:30Z</time></trkpt>
<trkpt lat="46.49128" lon="6.73599"><ele></ele><time>2016-10-30T13:26:33Z</time></trkpt>
<trkpt lat="46.49125" lon="6.73562"><ele></ele><time>2016-10-30T13:26:36Z</time></trkpt>
<trkpt lat="46.49118" lon="6.73536"><ele></ele><time>2016-10-30T13:26:39Z</time></trkpt>
<trkpt lat="46.49109" lon="6.73512"><ele></ele><time>2016-10-30T13:26:42Z</time></trkpt>
<trkpt lat="46.49104" lon="6.73486"><ele></ele><time>2016-10-30T13:26:45Z</time></trkpt>
<trkpt lat="46.49099" lon="6.73449"><ele></ele><time>2016-10-30T13:26:48Z</time></trkpt>
<trkpt lat="46.49091" lon="6.73415"><ele></ele><time>2016-10-30T13:26:51Z</time></trkpt>
<trkpt lat="46.49082" lon="6.73383"><ele></ele><time>2016-10-30T13:26:54Z</time></trkpt>
<trkpt lat="46.49072" lon="6.73352"><ele></ele><time>2016-10-30T13:26:57Z</time></trkpt>
<trkpt lat="46.49064" lon="6.73322"><ele></ele><time>2016-10-30T13:27:0Z</time></trkpt>
<trkpt lat="46.49058" lon="6.73294"><ele></ele><time>2016-10-30T13:27:3Z</time></trkpt>
<trkpt lat="46.49052" lon="6.73268"><ele></ele><time>2016-10-30T13:27:6Z</time></trkpt>
<trkpt lat="46.49045" lon="6.73244"><ele></ele><time>2016-10-30T13:27:9Z</time></trkpt>
<trkpt lat="46.49039" lon="6.73216"><ele></ele><time>2016-10-30T13:27:12Z</time></trkpt>
<trkpt lat="46.49032" lon="6.73191"><ele></ele><time>2016-10-30T13:27:15Z</time></trkpt>
<trkpt lat="46.49025" lon="6.73166"><ele></ele><time>2016-10-30T13:27:18Z</time></trkpt>
<trkpt lat="46.49015" lon="6.73138"><ele></ele><time>2016-10-30T13:27:21Z</time></trkpt>
<trkpt lat="46.49005" lon="6.73115"><ele></ele><time>2016-10-30T13:27:24Z</time></trkpt>
<trkpt lat="46.48995" lon="6.73089"><ele></ele><time>2016-10-30T13:27:27Z</time></trkpt>
<trkpt lat="46.48992" lon="6.73081"><ele></ele><time>2016-10-30T13:27:30Z</time></trkpt>
<trkpt lat="46.48986" lon="6.73064"><ele></ele><time>2016-10-30T13:27:33Z</time></trkpt>
<trkpt lat="46.48976" lon="6.73037"><ele></ele><time>2016-10-30T13:27:36Z</time></trkpt>
<trkpt lat="46.48967" lon="6.73012"><ele></ele><time>2016-10-30T13:27:39Z</time></trkpt>
<trkpt lat="46.48958" lon="6.72988"><ele></ele><time>2016-10-30T13:27:42Z</time></trkpt>
<trkpt lat="46.48947" lon="6.72957"><ele></ele><time>2016-10-30T13:27:45Z</time></trkpt>
<trkpt lat="46.48944" lon="6.7295"><ele></ele><time>2016-10-30T13:27:48Z</time></trkpt>
<trkpt lat="46.48933" lon="6.72918"><ele></ele><time>2016-10-30T13:27:51Z</time></trkpt>
<trkpt lat="46.48924" lon="6.72893"><ele></ele><time>2016-10-30T13:27:54Z</time></trkpt>
<trkpt lat="46.48916" lon="6.72866"><ele></ele><time>2016-10-30T13:27:57Z</time></trkpt>
<trkpt lat="46.48909" lon="6.72838"><ele></ele><time>2016-10-30T13:28:0Z</time></trkpt>
<trkpt lat="46.48901" lon="6.7281"><ele></ele><time>2016-10-30T13:28:3Z</time></trkpt>
<trkpt lat="46.48895" lon="6.72786"><ele></ele><time>2016-10-30T13:28:6Z</time></trkpt>
<trkpt lat="46.48895" lon="6.7278"><ele></ele><time>2016-10-30T13:28:9Z</time></trkpt>
<trkpt lat="46.48906" lon="6.72758"><ele></ele><time>2016-10-30T13:28:12Z</time></trkpt>
<trkpt lat="46.48908" lon="6.72745"><ele></ele><time>2016-10-30T13:28:15Z</time></trkpt>
<trkpt lat="46.48902" lon="6.72738"><ele></ele><time>2016-10-30T13:28:18Z</time></trkpt>
<trkpt lat="46.48902" lon="6.72723"><ele></ele><time>2016-10-30T13:28:21Z</time></trkpt>
<trkpt lat="46.48904" lon="6.72707"><ele></ele><time>2016-10-30T13:28:24Z</time></trkpt>
<trkpt lat="46.48909" lon="6.72685"><ele></ele><time>2016-10-30T13:28:27Z</time></trkpt>
<trkpt lat="46.48899" lon="6.72673"><ele></ele><time>2016-10-30T13:28:30Z</time></trkpt>
<trkpt lat="46.48891" lon="6.72676"><ele></ele><time>2016-10-30T13:28:33Z</time></trkpt>
<trkpt lat="46.4887" lon="6.72673"><ele></ele><time>2016-10-30T13:28:36Z</time></trkpt>
<trkpt lat="46.48858" lon="6.72652"><ele></ele><time>2016-10-30T13:28:39Z</time></trkpt>
<trkpt lat="46.4886" lon="6.72627"><ele></ele><time>2016-10-30T13:28:42Z</time></trkpt>
<trkpt lat="46.4886" lon="6.72622"><ele></ele><time>2016-10-30T13:28:45Z</time></trkpt>
<trkpt lat="46.48856" lon="6.72601"><ele></ele><time>2016-10-30T13:28:48Z</time></trkpt>
<trkpt lat="46.48847" lon="6.72574"><ele></ele><time>2016-10-30T13:28:51Z</time></trkpt>
<trkpt lat="46.48845" lon="6.72566"><ele></ele><time>2016-10-30T13:28:54Z</time></trkpt>
<trkpt lat="46.48839" lon="6.7256"><ele></ele><time>2016-10-30T13:28:57Z</time></trkpt>
<trkpt lat="46.48839" lon="6.7256"><ele></ele><time>2016-10-30T13:29:0Z</time></trkpt>
</trkseg></trk></gpx>